<?xml version="1.0" encoding="UTF-8"?>
<gpx version="1.1" creator="https://www.youtrack.es" xsi:schemaLocation="http://www.topografix.com/GPX/1/1 http://www.topografix.com/GPX/1/1/gpx.xsd http://www.garmin.com/xmlschemas/GpxExtensions/v3 http://www.garmin.com/xmlschemas/GpxExtensionsv3.xsd http://www.garmin.com/xmlschemas/TrackPointExtension/v1 http://www.garmin.com/xmlschemas/TrackPointExtensionv1.xsd" xmlns:gpxtpx="http://www.garmin.com/xmlschemas/TrackPointExtension/v1" xmlns:gpxx="http://www.garmin.com/xmlschemas/GpxExtensions/v3" xmlns:xsi="http://www.w3.org/2001/XMLSchema-instance">
  <metadata>
    <link href="https://www.youtrack.es">
      <text>YouTrack.es</text>
    </link>
    <time>2026-05-08T08:46:32Z</time>
  </metadata>
  <trk>
    <src>https://www.youtrack.es</src>
    <link href="https://www.youtrack.es/ruta/8447-nafarroa-erdian">
      <text>YouTrack.es</text>
    </link>
    <trkseg>
      <trkpt lat="42.659291" lon="-1.990628">
        <ele>421.012</ele>
        <time>2019-09-22T17:27:11Z</time>
      </trkpt>
      <trkpt lat="42.658502" lon="-1.990929">
        <ele>421.032</ele>
        <time>2019-09-22T17:27:21Z</time>
      </trkpt>
      <trkpt lat="42.657634" lon="-1.992474">
        <ele>420.305</ele>
        <time>2019-09-22T17:27:31Z</time>
      </trkpt>
      <trkpt lat="42.657555" lon="-1.992581">
        <ele>420.208</ele>
        <time>2019-09-22T17:27:41Z</time>
      </trkpt>
      <trkpt lat="42.657476" lon="-1.992624">
        <ele>420.015</ele>
        <time>2019-09-22T17:27:51Z</time>
      </trkpt>
      <trkpt lat="42.657160" lon="-1.992323">
        <ele>418.382</ele>
        <time>2019-09-22T17:28:01Z</time>
      </trkpt>
      <trkpt lat="42.656987" lon="-1.992302">
        <ele>418.046</ele>
        <time>2019-09-22T17:28:11Z</time>
      </trkpt>
      <trkpt lat="42.656718" lon="-1.992388">
        <ele>417.788</ele>
        <time>2019-09-22T17:28:21Z</time>
      </trkpt>
      <trkpt lat="42.656150" lon="-1.992731">
        <ele>417.937</ele>
        <time>2019-09-22T17:28:31Z</time>
      </trkpt>
      <trkpt lat="42.655566" lon="-1.993139">
        <ele>418.014</ele>
        <time>2019-09-22T17:28:41Z</time>
      </trkpt>
      <trkpt lat="42.655046" lon="-1.993268">
        <ele>416.818</ele>
        <time>2019-09-22T17:28:51Z</time>
      </trkpt>
      <trkpt lat="42.654919" lon="-1.993847">
        <ele>416.756</ele>
        <time>2019-09-22T17:29:01Z</time>
      </trkpt>
      <trkpt lat="42.654698" lon="-1.994491">
        <ele>416.942</ele>
        <time>2019-09-22T17:29:11Z</time>
      </trkpt>
      <trkpt lat="42.653815" lon="-1.996894">
        <ele>415.722</ele>
        <time>2019-09-22T17:29:21Z</time>
      </trkpt>
      <trkpt lat="42.653720" lon="-1.997752">
        <ele>415.414</ele>
        <time>2019-09-22T17:29:31Z</time>
      </trkpt>
      <trkpt lat="42.652331" lon="-1.999168">
        <ele>412.408</ele>
        <time>2019-09-22T17:29:41Z</time>
      </trkpt>
      <trkpt lat="42.650595" lon="-2.000885">
        <ele>410.038</ele>
        <time>2019-09-22T17:29:51Z</time>
      </trkpt>
      <trkpt lat="42.650122" lon="-2.000799">
        <ele>409.965</ele>
        <time>2019-09-22T17:30:01Z</time>
      </trkpt>
      <trkpt lat="42.649964" lon="-2.000799">
        <ele>409.569</ele>
        <time>2019-09-22T17:30:11Z</time>
      </trkpt>
      <trkpt lat="42.649333" lon="-2.002473">
        <ele>411.161</ele>
        <time>2019-09-22T17:30:21Z</time>
      </trkpt>
      <trkpt lat="42.648575" lon="-2.004189">
        <ele>407.850</ele>
        <time>2019-09-22T17:30:31Z</time>
      </trkpt>
      <trkpt lat="42.647975" lon="-2.004833">
        <ele>406.847</ele>
        <time>2019-09-22T17:30:41Z</time>
      </trkpt>
      <trkpt lat="42.647849" lon="-2.005863">
        <ele>405.771</ele>
        <time>2019-09-22T17:30:51Z</time>
      </trkpt>
      <trkpt lat="42.647281" lon="-2.005992">
        <ele>404.869</ele>
        <time>2019-09-22T17:31:01Z</time>
      </trkpt>
      <trkpt lat="42.646145" lon="-2.008224">
        <ele>405.249</ele>
        <time>2019-09-22T17:31:11Z</time>
      </trkpt>
      <trkpt lat="42.645829" lon="-2.008181">
        <ele>405.002</ele>
        <time>2019-09-22T17:31:21Z</time>
      </trkpt>
      <trkpt lat="42.645419" lon="-2.007709">
        <ele>404.922</ele>
        <time>2019-09-22T17:31:31Z</time>
      </trkpt>
      <trkpt lat="42.644913" lon="-2.007151">
        <ele>404.708</ele>
        <time>2019-09-22T17:31:41Z</time>
      </trkpt>
      <trkpt lat="42.644566" lon="-2.007194">
        <ele>403.578</ele>
        <time>2019-09-22T17:31:51Z</time>
      </trkpt>
      <trkpt lat="42.644440" lon="-2.006850">
        <ele>405.385</ele>
        <time>2019-09-22T17:32:01Z</time>
      </trkpt>
      <trkpt lat="42.644140" lon="-2.007301">
        <ele>404.779</ele>
        <time>2019-09-22T17:32:11Z</time>
      </trkpt>
      <trkpt lat="42.643903" lon="-2.006786">
        <ele>404.791</ele>
        <time>2019-09-22T17:32:21Z</time>
      </trkpt>
      <trkpt lat="42.643493" lon="-2.006142">
        <ele>404.610</ele>
        <time>2019-09-22T17:32:31Z</time>
      </trkpt>
      <trkpt lat="42.642956" lon="-2.005155">
        <ele>403.947</ele>
        <time>2019-09-22T17:32:41Z</time>
      </trkpt>
      <trkpt lat="42.642704" lon="-2.004125">
        <ele>403.261</ele>
        <time>2019-09-22T17:32:51Z</time>
      </trkpt>
      <trkpt lat="42.642562" lon="-2.002945">
        <ele>403.959</ele>
        <time>2019-09-22T17:33:01Z</time>
      </trkpt>
      <trkpt lat="42.642656" lon="-2.002172">
        <ele>403.523</ele>
        <time>2019-09-22T17:33:11Z</time>
      </trkpt>
      <trkpt lat="42.642830" lon="-2.001679">
        <ele>403.683</ele>
        <time>2019-09-22T17:33:21Z</time>
      </trkpt>
      <trkpt lat="42.642388" lon="-2.001293">
        <ele>404.111</ele>
        <time>2019-09-22T17:33:31Z</time>
      </trkpt>
      <trkpt lat="42.642214" lon="-2.001057">
        <ele>403.808</ele>
        <time>2019-09-22T17:33:41Z</time>
      </trkpt>
      <trkpt lat="42.641851" lon="-2.001035">
        <ele>404.246</ele>
        <time>2019-09-22T17:33:51Z</time>
      </trkpt>
      <trkpt lat="42.641188" lon="-2.001314">
        <ele>403.913</ele>
        <time>2019-09-22T17:34:01Z</time>
      </trkpt>
      <trkpt lat="42.640778" lon="-2.001100">
        <ele>404.167</ele>
        <time>2019-09-22T17:34:11Z</time>
      </trkpt>
      <trkpt lat="42.640431" lon="-2.000821">
        <ele>403.429</ele>
        <time>2019-09-22T17:34:21Z</time>
      </trkpt>
      <trkpt lat="42.639863" lon="-2.000456">
        <ele>403.048</ele>
        <time>2019-09-22T17:34:31Z</time>
      </trkpt>
      <trkpt lat="42.639200" lon="-1.999962">
        <ele>403.555</ele>
        <time>2019-09-22T17:34:41Z</time>
      </trkpt>
      <trkpt lat="42.638852" lon="-1.999276">
        <ele>403.529</ele>
        <time>2019-09-22T17:34:51Z</time>
      </trkpt>
      <trkpt lat="42.638174" lon="-1.998632">
        <ele>404.447</ele>
        <time>2019-09-22T17:35:01Z</time>
      </trkpt>
      <trkpt lat="42.637810" lon="-1.997795">
        <ele>403.489</ele>
        <time>2019-09-22T17:35:11Z</time>
      </trkpt>
      <trkpt lat="42.637211" lon="-1.997516">
        <ele>405.406</ele>
        <time>2019-09-22T17:35:21Z</time>
      </trkpt>
      <trkpt lat="42.636642" lon="-1.997130">
        <ele>403.126</ele>
        <time>2019-09-22T17:35:31Z</time>
      </trkpt>
      <trkpt lat="42.636137" lon="-1.997023">
        <ele>403.108</ele>
        <time>2019-09-22T17:35:41Z</time>
      </trkpt>
      <trkpt lat="42.635711" lon="-1.997044">
        <ele>403.922</ele>
        <time>2019-09-22T17:35:51Z</time>
      </trkpt>
      <trkpt lat="42.635095" lon="-1.996937">
        <ele>401.969</ele>
        <time>2019-09-22T17:36:01Z</time>
      </trkpt>
      <trkpt lat="42.634464" lon="-1.996937">
        <ele>401.973</ele>
        <time>2019-09-22T17:36:11Z</time>
      </trkpt>
      <trkpt lat="42.634211" lon="-1.996830">
        <ele>402.115</ele>
        <time>2019-09-22T17:36:21Z</time>
      </trkpt>
      <trkpt lat="42.633532" lon="-1.996508">
        <ele>403.294</ele>
        <time>2019-09-22T17:36:31Z</time>
      </trkpt>
      <trkpt lat="42.632822" lon="-1.995907">
        <ele>401.121</ele>
        <time>2019-09-22T17:36:41Z</time>
      </trkpt>
      <trkpt lat="42.632601" lon="-1.995499">
        <ele>399.975</ele>
        <time>2019-09-22T17:36:51Z</time>
      </trkpt>
      <trkpt lat="42.632285" lon="-1.994770">
        <ele>398.583</ele>
        <time>2019-09-22T17:37:01Z</time>
      </trkpt>
      <trkpt lat="42.632080" lon="-1.994491">
        <ele>398.814</ele>
        <time>2019-09-22T17:37:11Z</time>
      </trkpt>
      <trkpt lat="42.631733" lon="-1.994276">
        <ele>400.254</ele>
        <time>2019-09-22T17:37:21Z</time>
      </trkpt>
      <trkpt lat="42.631717" lon="-1.994019">
        <ele>399.309</ele>
        <time>2019-09-22T17:37:31Z</time>
      </trkpt>
      <trkpt lat="42.631512" lon="-1.993718">
        <ele>399.708</ele>
        <time>2019-09-22T17:37:41Z</time>
      </trkpt>
      <trkpt lat="42.631133" lon="-1.993246">
        <ele>398.615</ele>
        <time>2019-09-22T17:37:51Z</time>
      </trkpt>
      <trkpt lat="42.630801" lon="-1.992946">
        <ele>398.342</ele>
        <time>2019-09-22T17:38:01Z</time>
      </trkpt>
      <trkpt lat="42.630296" lon="-1.992817">
        <ele>399.186</ele>
        <time>2019-09-22T17:38:11Z</time>
      </trkpt>
      <trkpt lat="42.629744" lon="-1.992602">
        <ele>400.968</ele>
        <time>2019-09-22T17:38:21Z</time>
      </trkpt>
      <trkpt lat="42.629365" lon="-1.992195">
        <ele>400.687</ele>
        <time>2019-09-22T17:38:31Z</time>
      </trkpt>
      <trkpt lat="42.628449" lon="-1.991272">
        <ele>398.924</ele>
        <time>2019-09-22T17:38:41Z</time>
      </trkpt>
      <trkpt lat="42.627707" lon="-1.990843">
        <ele>399.368</ele>
        <time>2019-09-22T17:38:51Z</time>
      </trkpt>
      <trkpt lat="42.627139" lon="-1.990650">
        <ele>398.676</ele>
        <time>2019-09-22T17:39:01Z</time>
      </trkpt>
      <trkpt lat="42.626554" lon="-1.990564">
        <ele>398.118</ele>
        <time>2019-09-22T17:39:11Z</time>
      </trkpt>
      <trkpt lat="42.625781" lon="-1.990349">
        <ele>398.098</ele>
        <time>2019-09-22T17:39:21Z</time>
      </trkpt>
      <trkpt lat="42.624739" lon="-1.989985">
        <ele>399.817</ele>
        <time>2019-09-22T17:39:31Z</time>
      </trkpt>
      <trkpt lat="42.624249" lon="-1.990070">
        <ele>401.308</ele>
        <time>2019-09-22T17:39:41Z</time>
      </trkpt>
      <trkpt lat="42.623839" lon="-1.990070">
        <ele>401.375</ele>
        <time>2019-09-22T17:39:51Z</time>
      </trkpt>
      <trkpt lat="42.623192" lon="-1.989942">
        <ele>401.052</ele>
        <time>2019-09-22T17:40:01Z</time>
      </trkpt>
      <trkpt lat="42.622102" lon="-1.989770">
        <ele>405.156</ele>
        <time>2019-09-22T17:40:11Z</time>
      </trkpt>
      <trkpt lat="42.621534" lon="-1.989620">
        <ele>404.628</ele>
        <time>2019-09-22T17:40:21Z</time>
      </trkpt>
      <trkpt lat="42.621202" lon="-1.989706">
        <ele>403.387</ele>
        <time>2019-09-22T17:40:31Z</time>
      </trkpt>
      <trkpt lat="42.620507" lon="-1.990049">
        <ele>401.914</ele>
        <time>2019-09-22T17:40:41Z</time>
      </trkpt>
      <trkpt lat="42.620144" lon="-1.990306">
        <ele>404.228</ele>
        <time>2019-09-22T17:40:51Z</time>
      </trkpt>
      <trkpt lat="42.618944" lon="-1.990392">
        <ele>402.586</ele>
        <time>2019-09-22T17:41:01Z</time>
      </trkpt>
      <trkpt lat="42.618423" lon="-1.990285">
        <ele>399.944</ele>
        <time>2019-09-22T17:41:11Z</time>
      </trkpt>
      <trkpt lat="42.617507" lon="-1.990457">
        <ele>399.305</ele>
        <time>2019-09-22T17:41:21Z</time>
      </trkpt>
      <trkpt lat="42.617460" lon="-1.990156">
        <ele>399.515</ele>
        <time>2019-09-22T17:41:31Z</time>
      </trkpt>
      <trkpt lat="42.616955" lon="-1.989534">
        <ele>400.608</ele>
        <time>2019-09-22T17:41:41Z</time>
      </trkpt>
      <trkpt lat="42.616418" lon="-1.989019">
        <ele>397.918</ele>
        <time>2019-09-22T17:41:51Z</time>
      </trkpt>
      <trkpt lat="42.615454" lon="-1.988633">
        <ele>396.575</ele>
        <time>2019-09-22T17:42:01Z</time>
      </trkpt>
      <trkpt lat="42.614902" lon="-1.988590">
        <ele>396.129</ele>
        <time>2019-09-22T17:42:11Z</time>
      </trkpt>
      <trkpt lat="42.613559" lon="-1.988804">
        <ele>396.111</ele>
        <time>2019-09-22T17:42:21Z</time>
      </trkpt>
      <trkpt lat="42.611870" lon="-1.989191">
        <ele>393.820</ele>
        <time>2019-09-22T17:42:31Z</time>
      </trkpt>
      <trkpt lat="42.611664" lon="-1.989276">
        <ele>393.887</ele>
        <time>2019-09-22T17:42:41Z</time>
      </trkpt>
      <trkpt lat="42.611143" lon="-1.988933">
        <ele>388.751</ele>
        <time>2019-09-22T17:42:51Z</time>
      </trkpt>
      <trkpt lat="42.611017" lon="-1.989083">
        <ele>389.549</ele>
        <time>2019-09-22T17:43:01Z</time>
      </trkpt>
      <trkpt lat="42.609848" lon="-1.990542">
        <ele>395.338</ele>
        <time>2019-09-22T17:43:11Z</time>
      </trkpt>
      <trkpt lat="42.607827" lon="-1.991336">
        <ele>396.870</ele>
        <time>2019-09-22T17:43:21Z</time>
      </trkpt>
      <trkpt lat="42.606879" lon="-1.991894">
        <ele>394.417</ele>
        <time>2019-09-22T17:43:31Z</time>
      </trkpt>
      <trkpt lat="42.605474" lon="-1.993482">
        <ele>388.208</ele>
        <time>2019-09-22T17:43:41Z</time>
      </trkpt>
      <trkpt lat="42.605079" lon="-1.994019">
        <ele>389.687</ele>
        <time>2019-09-22T17:43:51Z</time>
      </trkpt>
      <trkpt lat="42.604021" lon="-1.994426">
        <ele>392.514</ele>
        <time>2019-09-22T17:44:01Z</time>
      </trkpt>
      <trkpt lat="42.603278" lon="-1.993976">
        <ele>393.178</ele>
        <time>2019-09-22T17:44:11Z</time>
      </trkpt>
      <trkpt lat="42.602378" lon="-1.992946">
        <ele>385.910</ele>
        <time>2019-09-22T17:44:21Z</time>
      </trkpt>
      <trkpt lat="42.602141" lon="-1.992795">
        <ele>387.339</ele>
        <time>2019-09-22T17:44:31Z</time>
      </trkpt>
      <trkpt lat="42.601873" lon="-1.992388">
        <ele>389.846</ele>
        <time>2019-09-22T17:44:41Z</time>
      </trkpt>
      <trkpt lat="42.601383" lon="-1.991808">
        <ele>390.530</ele>
        <time>2019-09-22T17:44:51Z</time>
      </trkpt>
      <trkpt lat="42.600151" lon="-1.991122">
        <ele>389.528</ele>
        <time>2019-09-22T17:45:01Z</time>
      </trkpt>
      <trkpt lat="42.598745" lon="-1.990671">
        <ele>390.042</ele>
        <time>2019-09-22T17:45:11Z</time>
      </trkpt>
      <trkpt lat="42.598477" lon="-1.990499">
        <ele>390.022</ele>
        <time>2019-09-22T17:45:21Z</time>
      </trkpt>
      <trkpt lat="42.597608" lon="-1.989813">
        <ele>389.714</ele>
        <time>2019-09-22T17:45:31Z</time>
      </trkpt>
      <trkpt lat="42.596676" lon="-1.988890">
        <ele>390.008</ele>
        <time>2019-09-22T17:45:41Z</time>
      </trkpt>
      <trkpt lat="42.595081" lon="-1.987774">
        <ele>387.328</ele>
        <time>2019-09-22T17:45:51Z</time>
      </trkpt>
      <trkpt lat="42.594180" lon="-1.987152">
        <ele>385.725</ele>
        <time>2019-09-22T17:46:01Z</time>
      </trkpt>
      <trkpt lat="42.593722" lon="-1.986723">
        <ele>385.959</ele>
        <time>2019-09-22T17:46:11Z</time>
      </trkpt>
      <trkpt lat="42.592932" lon="-1.986122">
        <ele>384.511</ele>
        <time>2019-09-22T17:46:21Z</time>
      </trkpt>
      <trkpt lat="42.592000" lon="-1.985049">
        <ele>380.850</ele>
        <time>2019-09-22T17:46:31Z</time>
      </trkpt>
      <trkpt lat="42.591795" lon="-1.984727">
        <ele>380.697</ele>
        <time>2019-09-22T17:46:41Z</time>
      </trkpt>
      <trkpt lat="42.591163" lon="-1.984427">
        <ele>383.511</ele>
        <time>2019-09-22T17:46:51Z</time>
      </trkpt>
      <trkpt lat="42.590626" lon="-1.983590">
        <ele>384.029</ele>
        <time>2019-09-22T17:47:01Z</time>
      </trkpt>
      <trkpt lat="42.590105" lon="-1.982839">
        <ele>382.167</ele>
        <time>2019-09-22T17:47:11Z</time>
      </trkpt>
      <trkpt lat="42.589473" lon="-1.982195">
        <ele>382.381</ele>
        <time>2019-09-22T17:47:21Z</time>
      </trkpt>
      <trkpt lat="42.588967" lon="-1.981509">
        <ele>380.619</ele>
        <time>2019-09-22T17:47:31Z</time>
      </trkpt>
      <trkpt lat="42.588667" lon="-1.981401">
        <ele>381.108</ele>
        <time>2019-09-22T17:47:41Z</time>
      </trkpt>
      <trkpt lat="42.588478" lon="-1.981423">
        <ele>381.730</ele>
        <time>2019-09-22T17:47:51Z</time>
      </trkpt>
      <trkpt lat="42.588177" lon="-1.981552">
        <ele>383.427</ele>
        <time>2019-09-22T17:48:01Z</time>
      </trkpt>
      <trkpt lat="42.587814" lon="-1.981444">
        <ele>384.131</ele>
        <time>2019-09-22T17:48:11Z</time>
      </trkpt>
      <trkpt lat="42.586819" lon="-1.980908">
        <ele>384.053</ele>
        <time>2019-09-22T17:48:21Z</time>
      </trkpt>
      <trkpt lat="42.586566" lon="-1.980672">
        <ele>384.152</ele>
        <time>2019-09-22T17:48:31Z</time>
      </trkpt>
      <trkpt lat="42.586029" lon="-1.980307">
        <ele>384.569</ele>
        <time>2019-09-22T17:48:41Z</time>
      </trkpt>
      <trkpt lat="42.585476" lon="-1.979942">
        <ele>383.623</ele>
        <time>2019-09-22T17:48:51Z</time>
      </trkpt>
      <trkpt lat="42.584986" lon="-1.979964">
        <ele>384.731</ele>
        <time>2019-09-22T17:49:01Z</time>
      </trkpt>
      <trkpt lat="42.584496" lon="-1.979899">
        <ele>385.236</ele>
        <time>2019-09-22T17:49:11Z</time>
      </trkpt>
      <trkpt lat="42.583375" lon="-1.979663">
        <ele>386.217</ele>
        <time>2019-09-22T17:49:21Z</time>
      </trkpt>
      <trkpt lat="42.582790" lon="-1.979578">
        <ele>385.918</ele>
        <time>2019-09-22T17:49:31Z</time>
      </trkpt>
      <trkpt lat="42.582300" lon="-1.979642">
        <ele>386.308</ele>
        <time>2019-09-22T17:49:41Z</time>
      </trkpt>
      <trkpt lat="42.581652" lon="-1.979964">
        <ele>386.577</ele>
        <time>2019-09-22T17:49:51Z</time>
      </trkpt>
      <trkpt lat="42.581052" lon="-1.980329">
        <ele>387.074</ele>
        <time>2019-09-22T17:50:01Z</time>
      </trkpt>
      <trkpt lat="42.580957" lon="-1.980951">
        <ele>390.888</ele>
        <time>2019-09-22T17:50:11Z</time>
      </trkpt>
      <trkpt lat="42.580783" lon="-1.980908">
        <ele>390.220</ele>
        <time>2019-09-22T17:50:21Z</time>
      </trkpt>
      <trkpt lat="42.580357" lon="-1.980865">
        <ele>390.339</ele>
        <time>2019-09-22T17:50:31Z</time>
      </trkpt>
      <trkpt lat="42.580151" lon="-1.981080">
        <ele>394.156</ele>
        <time>2019-09-22T17:50:41Z</time>
      </trkpt>
      <trkpt lat="42.579583" lon="-1.981337">
        <ele>393.130</ele>
        <time>2019-09-22T17:50:51Z</time>
      </trkpt>
      <trkpt lat="42.579472" lon="-1.981552">
        <ele>392.818</ele>
        <time>2019-09-22T17:51:01Z</time>
      </trkpt>
      <trkpt lat="42.579314" lon="-1.981680">
        <ele>393.056</ele>
        <time>2019-09-22T17:51:11Z</time>
      </trkpt>
      <trkpt lat="42.579030" lon="-1.981401">
        <ele>393.559</ele>
        <time>2019-09-22T17:51:21Z</time>
      </trkpt>
      <trkpt lat="42.578714" lon="-1.981133">
        <ele>392.814</ele>
        <time>2019-09-22T17:51:31Z</time>
      </trkpt>
      <trkpt lat="42.578556" lon="-1.981133">
        <ele>393.308</ele>
        <time>2019-09-22T17:51:41Z</time>
      </trkpt>
      <trkpt lat="42.577766" lon="-1.981798">
        <ele>398.989</ele>
        <time>2019-09-22T17:51:51Z</time>
      </trkpt>
      <trkpt lat="42.577489" lon="-1.981863">
        <ele>398.216</ele>
        <time>2019-09-22T17:52:01Z</time>
      </trkpt>
      <trkpt lat="42.576794" lon="-1.981573">
        <ele>398.010</ele>
        <time>2019-09-22T17:52:11Z</time>
      </trkpt>
      <trkpt lat="42.576328" lon="-1.981530">
        <ele>396.832</ele>
        <time>2019-09-22T17:52:21Z</time>
      </trkpt>
      <trkpt lat="42.576114" lon="-1.981455">
        <ele>395.581</ele>
        <time>2019-09-22T17:52:31Z</time>
      </trkpt>
      <trkpt lat="42.575791" lon="-1.981101">
        <ele>391.988</ele>
        <time>2019-09-22T17:52:41Z</time>
      </trkpt>
      <trkpt lat="42.575633" lon="-1.981337">
        <ele>394.432</ele>
        <time>2019-09-22T17:52:51Z</time>
      </trkpt>
      <trkpt lat="42.575601" lon="-1.982775">
        <ele>405.190</ele>
        <time>2019-09-22T17:53:01Z</time>
      </trkpt>
      <trkpt lat="42.575332" lon="-1.984620">
        <ele>417.274</ele>
        <time>2019-09-22T17:53:11Z</time>
      </trkpt>
      <trkpt lat="42.575317" lon="-1.985285">
        <ele>417.356</ele>
        <time>2019-09-22T17:53:21Z</time>
      </trkpt>
      <trkpt lat="42.575601" lon="-1.988161">
        <ele>417.321</ele>
        <time>2019-09-22T17:53:31Z</time>
      </trkpt>
      <trkpt lat="42.575601" lon="-1.988525">
        <ele>417.908</ele>
        <time>2019-09-22T17:53:41Z</time>
      </trkpt>
      <trkpt lat="42.575348" lon="-1.988440">
        <ele>418.091</ele>
        <time>2019-09-22T17:53:51Z</time>
      </trkpt>
      <trkpt lat="42.574684" lon="-1.987667">
        <ele>417.148</ele>
        <time>2019-09-22T17:54:01Z</time>
      </trkpt>
      <trkpt lat="42.573863" lon="-1.986680">
        <ele>421.032</ele>
        <time>2019-09-22T17:54:11Z</time>
      </trkpt>
      <trkpt lat="42.572978" lon="-1.985672">
        <ele>414.554</ele>
        <time>2019-09-22T17:54:21Z</time>
      </trkpt>
      <trkpt lat="42.572314" lon="-1.984727">
        <ele>413.033</ele>
        <time>2019-09-22T17:54:31Z</time>
      </trkpt>
      <trkpt lat="42.571129" lon="-1.984963">
        <ele>408.650</ele>
        <time>2019-09-22T17:54:41Z</time>
      </trkpt>
      <trkpt lat="42.571003" lon="-1.984770">
        <ele>408.294</ele>
        <time>2019-09-22T17:54:51Z</time>
      </trkpt>
      <trkpt lat="42.570876" lon="-1.984363">
        <ele>405.952</ele>
        <time>2019-09-22T17:55:01Z</time>
      </trkpt>
      <trkpt lat="42.570671" lon="-1.984835">
        <ele>406.294</ele>
        <time>2019-09-22T17:55:11Z</time>
      </trkpt>
      <trkpt lat="42.570465" lon="-1.986251">
        <ele>410.557</ele>
        <time>2019-09-22T17:55:21Z</time>
      </trkpt>
      <trkpt lat="42.569659" lon="-1.986594">
        <ele>413.922</ele>
        <time>2019-09-22T17:55:31Z</time>
      </trkpt>
      <trkpt lat="42.568458" lon="-1.986809">
        <ele>419.308</ele>
        <time>2019-09-22T17:55:41Z</time>
      </trkpt>
      <trkpt lat="42.567368" lon="-1.987152">
        <ele>419.553</ele>
        <time>2019-09-22T17:55:51Z</time>
      </trkpt>
      <trkpt lat="42.566926" lon="-1.987345">
        <ele>417.680</ele>
        <time>2019-09-22T17:56:01Z</time>
      </trkpt>
      <trkpt lat="42.566752" lon="-1.987281">
        <ele>417.884</ele>
        <time>2019-09-22T17:56:11Z</time>
      </trkpt>
      <trkpt lat="42.565993" lon="-1.987495">
        <ele>417.186</ele>
        <time>2019-09-22T17:56:21Z</time>
      </trkpt>
      <trkpt lat="42.565250" lon="-1.987646">
        <ele>414.925</ele>
        <time>2019-09-22T17:56:31Z</time>
      </trkpt>
      <trkpt lat="42.564729" lon="-1.987753">
        <ele>412.152</ele>
        <time>2019-09-22T17:56:41Z</time>
      </trkpt>
      <trkpt lat="42.564381" lon="-1.988246">
        <ele>411.286</ele>
        <time>2019-09-22T17:56:51Z</time>
      </trkpt>
      <trkpt lat="42.563749" lon="-1.988804">
        <ele>420.884</ele>
        <time>2019-09-22T17:57:01Z</time>
      </trkpt>
      <trkpt lat="42.563022" lon="-1.988354">
        <ele>416.973</ele>
        <time>2019-09-22T17:57:11Z</time>
      </trkpt>
      <trkpt lat="42.562643" lon="-1.987667">
        <ele>416.285</ele>
        <time>2019-09-22T17:57:21Z</time>
      </trkpt>
      <trkpt lat="42.562469" lon="-1.987345">
        <ele>415.313</ele>
        <time>2019-09-22T17:57:31Z</time>
      </trkpt>
      <trkpt lat="42.561947" lon="-1.987216">
        <ele>415.008</ele>
        <time>2019-09-22T17:57:41Z</time>
      </trkpt>
      <trkpt lat="42.561742" lon="-1.987345">
        <ele>413.551</ele>
        <time>2019-09-22T17:57:51Z</time>
      </trkpt>
      <trkpt lat="42.560493" lon="-1.986980">
        <ele>405.618</ele>
        <time>2019-09-22T17:58:01Z</time>
      </trkpt>
      <trkpt lat="42.559577" lon="-1.987088">
        <ele>402.812</ele>
        <time>2019-09-22T17:58:11Z</time>
      </trkpt>
      <trkpt lat="42.558533" lon="-1.987152">
        <ele>402.614</ele>
        <time>2019-09-22T17:58:21Z</time>
      </trkpt>
      <trkpt lat="42.557253" lon="-1.987088">
        <ele>405.153</ele>
        <time>2019-09-22T17:58:31Z</time>
      </trkpt>
      <trkpt lat="42.557079" lon="-1.987066">
        <ele>404.180</ele>
        <time>2019-09-22T17:58:41Z</time>
      </trkpt>
      <trkpt lat="42.556937" lon="-1.987259">
        <ele>404.194</ele>
        <time>2019-09-22T17:58:51Z</time>
      </trkpt>
      <trkpt lat="42.556668" lon="-1.987174">
        <ele>403.732</ele>
        <time>2019-09-22T17:59:01Z</time>
      </trkpt>
      <trkpt lat="42.556115" lon="-1.986980">
        <ele>403.033</ele>
        <time>2019-09-22T17:59:11Z</time>
      </trkpt>
      <trkpt lat="42.555404" lon="-1.986938">
        <ele>403.023</ele>
        <time>2019-09-22T17:59:21Z</time>
      </trkpt>
      <trkpt lat="42.554534" lon="-1.986959">
        <ele>403.115</ele>
        <time>2019-09-22T17:59:31Z</time>
      </trkpt>
      <trkpt lat="42.553697" lon="-1.986809">
        <ele>402.508</ele>
        <time>2019-09-22T17:59:41Z</time>
      </trkpt>
      <trkpt lat="42.553381" lon="-1.986938">
        <ele>403.067</ele>
        <time>2019-09-22T17:59:51Z</time>
      </trkpt>
      <trkpt lat="42.552764" lon="-1.985950">
        <ele>400.054</ele>
        <time>2019-09-22T18:00:01Z</time>
      </trkpt>
      <trkpt lat="42.551990" lon="-1.984663">
        <ele>398.088</ele>
        <time>2019-09-22T18:00:11Z</time>
      </trkpt>
      <trkpt lat="42.551421" lon="-1.983569">
        <ele>396.870</ele>
        <time>2019-09-22T18:00:21Z</time>
      </trkpt>
      <trkpt lat="42.550346" lon="-1.982474">
        <ele>394.999</ele>
        <time>2019-09-22T18:00:31Z</time>
      </trkpt>
      <trkpt lat="42.549603" lon="-1.982002">
        <ele>394.266</ele>
        <time>2019-09-22T18:00:41Z</time>
      </trkpt>
      <trkpt lat="42.548970" lon="-1.981573">
        <ele>391.630</ele>
        <time>2019-09-22T18:00:51Z</time>
      </trkpt>
      <trkpt lat="42.548717" lon="-1.980908">
        <ele>389.688</ele>
        <time>2019-09-22T18:01:01Z</time>
      </trkpt>
      <trkpt lat="42.548591" lon="-1.980693">
        <ele>388.515</ele>
        <time>2019-09-22T18:01:11Z</time>
      </trkpt>
      <trkpt lat="42.547943" lon="-1.980436">
        <ele>388.265</ele>
        <time>2019-09-22T18:01:21Z</time>
      </trkpt>
      <trkpt lat="42.547753" lon="-1.979921">
        <ele>387.911</ele>
        <time>2019-09-22T18:01:31Z</time>
      </trkpt>
      <trkpt lat="42.547263" lon="-1.979556">
        <ele>387.808</ele>
        <time>2019-09-22T18:01:41Z</time>
      </trkpt>
      <trkpt lat="42.546852" lon="-1.979556">
        <ele>387.255</ele>
        <time>2019-09-22T18:01:51Z</time>
      </trkpt>
      <trkpt lat="42.546330" lon="-1.978698">
        <ele>383.242</ele>
        <time>2019-09-22T18:02:01Z</time>
      </trkpt>
      <trkpt lat="42.545603" lon="-1.978419">
        <ele>378.156</ele>
        <time>2019-09-22T18:02:11Z</time>
      </trkpt>
      <trkpt lat="42.544876" lon="-1.977410">
        <ele>371.718</ele>
        <time>2019-09-22T18:02:21Z</time>
      </trkpt>
      <trkpt lat="42.544323" lon="-1.976938">
        <ele>371.047</ele>
        <time>2019-09-22T18:02:31Z</time>
      </trkpt>
      <trkpt lat="42.544086" lon="-1.976531">
        <ele>370.434</ele>
        <time>2019-09-22T18:02:41Z</time>
      </trkpt>
      <trkpt lat="42.543848" lon="-1.976552">
        <ele>370.178</ele>
        <time>2019-09-22T18:02:51Z</time>
      </trkpt>
      <trkpt lat="42.543469" lon="-1.976295">
        <ele>369.376</ele>
        <time>2019-09-22T18:03:01Z</time>
      </trkpt>
      <trkpt lat="42.542758" lon="-1.975844">
        <ele>366.012</ele>
        <time>2019-09-22T18:03:11Z</time>
      </trkpt>
      <trkpt lat="42.541888" lon="-1.976595">
        <ele>365.032</ele>
        <time>2019-09-22T18:03:21Z</time>
      </trkpt>
      <trkpt lat="42.541003" lon="-1.977024">
        <ele>361.705</ele>
        <time>2019-09-22T18:03:31Z</time>
      </trkpt>
      <trkpt lat="42.540924" lon="-1.977324">
        <ele>361.008</ele>
        <time>2019-09-22T18:03:41Z</time>
      </trkpt>
      <trkpt lat="42.541509" lon="-1.978483">
        <ele>364.985</ele>
        <time>2019-09-22T18:03:51Z</time>
      </trkpt>
      <trkpt lat="42.542394" lon="-1.979299">
        <ele>369.332</ele>
        <time>2019-09-22T18:04:01Z</time>
      </trkpt>
      <trkpt lat="42.543943" lon="-1.981037">
        <ele>376.746</ele>
        <time>2019-09-22T18:04:11Z</time>
      </trkpt>
      <trkpt lat="42.544165" lon="-1.982067">
        <ele>369.718</ele>
        <time>2019-09-22T18:04:21Z</time>
      </trkpt>
      <trkpt lat="42.543880" lon="-1.982152">
        <ele>368.637</ele>
        <time>2019-09-22T18:04:31Z</time>
      </trkpt>
      <trkpt lat="42.543074" lon="-1.981487">
        <ele>371.524</ele>
        <time>2019-09-22T18:04:41Z</time>
      </trkpt>
      <trkpt lat="42.542868" lon="-1.981487">
        <ele>372.658</ele>
        <time>2019-09-22T18:04:51Z</time>
      </trkpt>
      <trkpt lat="42.541256" lon="-1.979620">
        <ele>369.356</ele>
        <time>2019-09-22T18:05:01Z</time>
      </trkpt>
      <trkpt lat="42.540750" lon="-1.978633">
        <ele>368.775</ele>
        <time>2019-09-22T18:05:11Z</time>
      </trkpt>
      <trkpt lat="42.540339" lon="-1.978376">
        <ele>368.828</ele>
        <time>2019-09-22T18:05:21Z</time>
      </trkpt>
      <trkpt lat="42.539295" lon="-1.978612">
        <ele>369.020</ele>
        <time>2019-09-22T18:05:31Z</time>
      </trkpt>
      <trkpt lat="42.538868" lon="-1.978161">
        <ele>367.208</ele>
        <time>2019-09-22T18:05:41Z</time>
      </trkpt>
      <trkpt lat="42.538568" lon="-1.977518">
        <ele>366.491</ele>
        <time>2019-09-22T18:05:51Z</time>
      </trkpt>
      <trkpt lat="42.538283" lon="-1.976724">
        <ele>368.068</ele>
        <time>2019-09-22T18:06:01Z</time>
      </trkpt>
      <trkpt lat="42.537683" lon="-1.975157">
        <ele>366.622</ele>
        <time>2019-09-22T18:06:11Z</time>
      </trkpt>
      <trkpt lat="42.537287" lon="-1.974535">
        <ele>366.754</ele>
        <time>2019-09-22T18:06:21Z</time>
      </trkpt>
      <trkpt lat="42.536813" lon="-1.974256">
        <ele>365.893</ele>
        <time>2019-09-22T18:06:31Z</time>
      </trkpt>
      <trkpt lat="42.535090" lon="-1.975071">
        <ele>365.070</ele>
        <time>2019-09-22T18:06:41Z</time>
      </trkpt>
      <trkpt lat="42.534299" lon="-1.975930">
        <ele>365.314</ele>
        <time>2019-09-22T18:06:51Z</time>
      </trkpt>
      <trkpt lat="42.532180" lon="-1.976123">
        <ele>365.052</ele>
        <time>2019-09-22T18:07:01Z</time>
      </trkpt>
      <trkpt lat="42.531643" lon="-1.975973">
        <ele>365.071</ele>
        <time>2019-09-22T18:07:11Z</time>
      </trkpt>
      <trkpt lat="42.530899" lon="-1.975951">
        <ele>365.041</ele>
        <time>2019-09-22T18:07:21Z</time>
      </trkpt>
      <trkpt lat="42.530235" lon="-1.976166">
        <ele>364.915</ele>
        <time>2019-09-22T18:07:31Z</time>
      </trkpt>
      <trkpt lat="42.529998" lon="-1.976488">
        <ele>365.008</ele>
        <time>2019-09-22T18:07:41Z</time>
      </trkpt>
      <trkpt lat="42.529065" lon="-1.977131">
        <ele>363.231</ele>
        <time>2019-09-22T18:07:51Z</time>
      </trkpt>
      <trkpt lat="42.528765" lon="-1.977410">
        <ele>362.938</ele>
        <time>2019-09-22T18:08:01Z</time>
      </trkpt>
      <trkpt lat="42.527547" lon="-1.977754">
        <ele>363.932</ele>
        <time>2019-09-22T18:08:11Z</time>
      </trkpt>
      <trkpt lat="42.526472" lon="-1.977260">
        <ele>362.914</ele>
        <time>2019-09-22T18:08:21Z</time>
      </trkpt>
      <trkpt lat="42.525649" lon="-1.977303">
        <ele>360.263</ele>
        <time>2019-09-22T18:08:31Z</time>
      </trkpt>
      <trkpt lat="42.524795" lon="-1.978827">
        <ele>361.460</ele>
        <time>2019-09-22T18:08:41Z</time>
      </trkpt>
      <trkpt lat="42.523910" lon="-1.979599">
        <ele>361.444</ele>
        <time>2019-09-22T18:08:51Z</time>
      </trkpt>
      <trkpt lat="42.523214" lon="-1.979749">
        <ele>360.952</ele>
        <time>2019-09-22T18:09:01Z</time>
      </trkpt>
      <trkpt lat="42.521727" lon="-1.980608">
        <ele>361.942</ele>
        <time>2019-09-22T18:09:11Z</time>
      </trkpt>
      <trkpt lat="42.521680" lon="-1.980715">
        <ele>361.522</ele>
        <time>2019-09-22T18:09:21Z</time>
      </trkpt>
      <trkpt lat="42.521601" lon="-1.981444">
        <ele>359.414</ele>
        <time>2019-09-22T18:09:31Z</time>
      </trkpt>
      <trkpt lat="42.521680" lon="-1.982646">
        <ele>361.008</ele>
        <time>2019-09-22T18:09:41Z</time>
      </trkpt>
      <trkpt lat="42.521870" lon="-1.983225">
        <ele>359.458</ele>
        <time>2019-09-22T18:09:51Z</time>
      </trkpt>
      <trkpt lat="42.521743" lon="-1.983869">
        <ele>360.635</ele>
        <time>2019-09-22T18:10:01Z</time>
      </trkpt>
      <trkpt lat="42.521901" lon="-1.985135">
        <ele>361.899</ele>
        <time>2019-09-22T18:10:11Z</time>
      </trkpt>
      <trkpt lat="42.521554" lon="-1.986187">
        <ele>360.571</ele>
        <time>2019-09-22T18:10:21Z</time>
      </trkpt>
      <trkpt lat="42.520953" lon="-1.987045">
        <ele>356.410</ele>
        <time>2019-09-22T18:10:31Z</time>
      </trkpt>
      <trkpt lat="42.520114" lon="-1.987388">
        <ele>351.037</ele>
        <time>2019-09-22T18:10:41Z</time>
      </trkpt>
      <trkpt lat="42.518802" lon="-1.988053">
        <ele>351.441</ele>
        <time>2019-09-22T18:10:51Z</time>
      </trkpt>
      <trkpt lat="42.518580" lon="-1.988547">
        <ele>352.259</ele>
        <time>2019-09-22T18:11:01Z</time>
      </trkpt>
      <trkpt lat="42.518454" lon="-1.989341">
        <ele>347.834</ele>
        <time>2019-09-22T18:11:11Z</time>
      </trkpt>
      <trkpt lat="42.518201" lon="-1.989491">
        <ele>347.755</ele>
        <time>2019-09-22T18:11:21Z</time>
      </trkpt>
      <trkpt lat="42.517869" lon="-1.989169">
        <ele>348.710</ele>
        <time>2019-09-22T18:11:31Z</time>
      </trkpt>
      <trkpt lat="42.517616" lon="-1.989255">
        <ele>350.108</ele>
        <time>2019-09-22T18:11:41Z</time>
      </trkpt>
      <trkpt lat="42.517220" lon="-1.988761">
        <ele>348.557</ele>
        <time>2019-09-22T18:11:51Z</time>
      </trkpt>
      <trkpt lat="42.516635" lon="-1.987882">
        <ele>347.074</ele>
        <time>2019-09-22T18:12:01Z</time>
      </trkpt>
      <trkpt lat="42.516556" lon="-1.987538">
        <ele>347.078</ele>
        <time>2019-09-22T18:12:11Z</time>
      </trkpt>
      <trkpt lat="42.514958" lon="-1.986659">
        <ele>346.060</ele>
        <time>2019-09-22T18:12:21Z</time>
      </trkpt>
      <trkpt lat="42.514579" lon="-1.986809">
        <ele>345.539</ele>
        <time>2019-09-22T18:12:31Z</time>
      </trkpt>
      <trkpt lat="42.514500" lon="-1.987259">
        <ele>346.066</ele>
        <time>2019-09-22T18:12:41Z</time>
      </trkpt>
      <trkpt lat="42.513883" lon="-1.987538">
        <ele>345.070</ele>
        <time>2019-09-22T18:12:51Z</time>
      </trkpt>
      <trkpt lat="42.513361" lon="-1.987603">
        <ele>345.058</ele>
        <time>2019-09-22T18:13:01Z</time>
      </trkpt>
      <trkpt lat="42.513155" lon="-1.987946">
        <ele>345.217</ele>
        <time>2019-09-22T18:13:11Z</time>
      </trkpt>
      <trkpt lat="42.512871" lon="-1.987967">
        <ele>345.087</ele>
        <time>2019-09-22T18:13:21Z</time>
      </trkpt>
      <trkpt lat="42.512839" lon="-1.987967">
        <ele>345.015</ele>
        <time>2019-09-22T18:13:31Z</time>
      </trkpt>
      <trkpt lat="42.512744" lon="-1.988418">
        <ele>344.908</ele>
        <time>2019-09-22T18:13:41Z</time>
      </trkpt>
      <trkpt lat="42.512349" lon="-1.988761">
        <ele>344.565</ele>
        <time>2019-09-22T18:13:51Z</time>
      </trkpt>
      <trkpt lat="42.512412" lon="-1.989534">
        <ele>344.722</ele>
        <time>2019-09-22T18:14:01Z</time>
      </trkpt>
      <trkpt lat="42.512301" lon="-1.989727">
        <ele>344.316</ele>
        <time>2019-09-22T18:14:11Z</time>
      </trkpt>
      <trkpt lat="42.511653" lon="-1.990156">
        <ele>344.058</ele>
        <time>2019-09-22T18:14:21Z</time>
      </trkpt>
      <trkpt lat="42.511131" lon="-1.989942">
        <ele>343.027</ele>
        <time>2019-09-22T18:14:31Z</time>
      </trkpt>
      <trkpt lat="42.510514" lon="-1.990027">
        <ele>343.084</ele>
        <time>2019-09-22T18:14:41Z</time>
      </trkpt>
      <trkpt lat="42.509960" lon="-1.990349">
        <ele>343.048</ele>
        <time>2019-09-22T18:14:51Z</time>
      </trkpt>
      <trkpt lat="42.509217" lon="-1.990757">
        <ele>342.726</ele>
        <time>2019-09-22T18:15:01Z</time>
      </trkpt>
      <trkpt lat="42.508505" lon="-1.991143">
        <ele>343.941</ele>
        <time>2019-09-22T18:15:11Z</time>
      </trkpt>
      <trkpt lat="42.507524" lon="-1.990972">
        <ele>346.581</ele>
        <time>2019-09-22T18:15:21Z</time>
      </trkpt>
      <trkpt lat="42.507034" lon="-1.990907">
        <ele>346.209</ele>
        <time>2019-09-22T18:15:31Z</time>
      </trkpt>
      <trkpt lat="42.506591" lon="-1.990392">
        <ele>342.008</ele>
        <time>2019-09-22T18:15:41Z</time>
      </trkpt>
      <trkpt lat="42.505990" lon="-1.989534">
        <ele>341.428</ele>
        <time>2019-09-22T18:15:51Z</time>
      </trkpt>
      <trkpt lat="42.505357" lon="-1.989062">
        <ele>341.085</ele>
        <time>2019-09-22T18:16:01Z</time>
      </trkpt>
      <trkpt lat="42.504677" lon="-1.988719">
        <ele>340.519</ele>
        <time>2019-09-22T18:16:11Z</time>
      </trkpt>
      <trkpt lat="42.503633" lon="-1.988761">
        <ele>341.051</ele>
        <time>2019-09-22T18:16:21Z</time>
      </trkpt>
      <trkpt lat="42.502889" lon="-1.988032">
        <ele>340.110</ele>
        <time>2019-09-22T18:16:31Z</time>
      </trkpt>
      <trkpt lat="42.501893" lon="-1.986744">
        <ele>340.467</ele>
        <time>2019-09-22T18:16:41Z</time>
      </trkpt>
      <trkpt lat="42.500769" lon="-1.985650">
        <ele>343.291</ele>
        <time>2019-09-22T18:16:51Z</time>
      </trkpt>
      <trkpt lat="42.500564" lon="-1.985114">
        <ele>341.969</ele>
        <time>2019-09-22T18:17:01Z</time>
      </trkpt>
      <trkpt lat="42.500485" lon="-1.983633">
        <ele>340.394</ele>
        <time>2019-09-22T18:17:11Z</time>
      </trkpt>
      <trkpt lat="42.500627" lon="-1.982002">
        <ele>339.657</ele>
        <time>2019-09-22T18:17:21Z</time>
      </trkpt>
      <trkpt lat="42.500390" lon="-1.979856">
        <ele>339.222</ele>
        <time>2019-09-22T18:17:31Z</time>
      </trkpt>
      <trkpt lat="42.500485" lon="-1.977904">
        <ele>339.308</ele>
        <time>2019-09-22T18:17:41Z</time>
      </trkpt>
      <trkpt lat="42.500548" lon="-1.977196">
        <ele>339.013</ele>
        <time>2019-09-22T18:17:51Z</time>
      </trkpt>
      <trkpt lat="42.500168" lon="-1.976874">
        <ele>338.730</ele>
        <time>2019-09-22T18:18:01Z</time>
      </trkpt>
      <trkpt lat="42.499757" lon="-1.976767">
        <ele>339.064</ele>
        <time>2019-09-22T18:18:11Z</time>
      </trkpt>
      <trkpt lat="42.498950" lon="-1.977088">
        <ele>338.176</ele>
        <time>2019-09-22T18:18:21Z</time>
      </trkpt>
      <trkpt lat="42.498254" lon="-1.977732">
        <ele>338.245</ele>
        <time>2019-09-22T18:18:31Z</time>
      </trkpt>
      <trkpt lat="42.497447" lon="-1.978462">
        <ele>338.192</ele>
        <time>2019-09-22T18:18:41Z</time>
      </trkpt>
      <trkpt lat="42.496656" lon="-1.979856">
        <ele>337.966</ele>
        <time>2019-09-22T18:18:51Z</time>
      </trkpt>
      <trkpt lat="42.495976" lon="-1.980028">
        <ele>338.054</ele>
        <time>2019-09-22T18:19:01Z</time>
      </trkpt>
      <trkpt lat="42.495422" lon="-1.979899">
        <ele>337.658</ele>
        <time>2019-09-22T18:19:11Z</time>
      </trkpt>
      <trkpt lat="42.493824" lon="-1.979492">
        <ele>338.052</ele>
        <time>2019-09-22T18:19:21Z</time>
      </trkpt>
      <trkpt lat="42.493318" lon="-1.979191">
        <ele>338.017</ele>
        <time>2019-09-22T18:19:31Z</time>
      </trkpt>
      <trkpt lat="42.492938" lon="-1.978354">
        <ele>336.908</ele>
        <time>2019-09-22T18:19:41Z</time>
      </trkpt>
      <trkpt lat="42.492115" lon="-1.977067">
        <ele>337.129</ele>
        <time>2019-09-22T18:19:51Z</time>
      </trkpt>
      <trkpt lat="42.490960" lon="-1.976359">
        <ele>337.396</ele>
        <time>2019-09-22T18:20:01Z</time>
      </trkpt>
      <trkpt lat="42.490248" lon="-1.976037">
        <ele>337.740</ele>
        <time>2019-09-22T18:20:11Z</time>
      </trkpt>
      <trkpt lat="42.489900" lon="-1.976166">
        <ele>337.292</ele>
        <time>2019-09-22T18:20:21Z</time>
      </trkpt>
      <trkpt lat="42.489109" lon="-1.977174">
        <ele>337.141</ele>
        <time>2019-09-22T18:20:31Z</time>
      </trkpt>
      <trkpt lat="42.487637" lon="-1.979041">
        <ele>336.318</ele>
        <time>2019-09-22T18:20:41Z</time>
      </trkpt>
      <trkpt lat="42.487115" lon="-1.980071">
        <ele>336.562</ele>
        <time>2019-09-22T18:20:51Z</time>
      </trkpt>
      <trkpt lat="42.486656" lon="-1.980436">
        <ele>337.040</ele>
        <time>2019-09-22T18:21:01Z</time>
      </trkpt>
      <trkpt lat="42.486387" lon="-1.979706">
        <ele>335.119</ele>
        <time>2019-09-22T18:21:11Z</time>
      </trkpt>
      <trkpt lat="42.486166" lon="-1.978934">
        <ele>340.809</ele>
        <time>2019-09-22T18:21:21Z</time>
      </trkpt>
      <trkpt lat="42.485106" lon="-1.977003">
        <ele>346.919</ele>
        <time>2019-09-22T18:21:31Z</time>
      </trkpt>
      <trkpt lat="42.484963" lon="-1.975372">
        <ele>354.508</ele>
        <time>2019-09-22T18:21:41Z</time>
      </trkpt>
      <trkpt lat="42.484805" lon="-1.974835">
        <ele>361.015</ele>
        <time>2019-09-22T18:21:51Z</time>
      </trkpt>
      <trkpt lat="42.484283" lon="-1.974707">
        <ele>369.972</ele>
        <time>2019-09-22T18:22:01Z</time>
      </trkpt>
      <trkpt lat="42.483729" lon="-1.975286">
        <ele>375.596</ele>
        <time>2019-09-22T18:22:11Z</time>
      </trkpt>
      <trkpt lat="42.483428" lon="-1.975265">
        <ele>388.278</ele>
        <time>2019-09-22T18:22:21Z</time>
      </trkpt>
      <trkpt lat="42.483808" lon="-1.973999">
        <ele>401.327</ele>
        <time>2019-09-22T18:22:31Z</time>
      </trkpt>
      <trkpt lat="42.483666" lon="-1.974020">
        <ele>406.184</ele>
        <time>2019-09-22T18:22:41Z</time>
      </trkpt>
      <trkpt lat="42.483254" lon="-1.974814">
        <ele>415.598</ele>
        <time>2019-09-22T18:22:51Z</time>
      </trkpt>
      <trkpt lat="42.482890" lon="-1.975050">
        <ele>423.256</ele>
        <time>2019-09-22T18:23:01Z</time>
      </trkpt>
      <trkpt lat="42.482336" lon="-1.974814">
        <ele>429.463</ele>
        <time>2019-09-22T18:23:11Z</time>
      </trkpt>
      <trkpt lat="42.481703" lon="-1.975029">
        <ele>434.644</ele>
        <time>2019-09-22T18:23:21Z</time>
      </trkpt>
      <trkpt lat="42.481260" lon="-1.974857">
        <ele>430.818</ele>
        <time>2019-09-22T18:23:31Z</time>
      </trkpt>
      <trkpt lat="42.481308" lon="-1.974149">
        <ele>434.208</ele>
        <time>2019-09-22T18:23:41Z</time>
      </trkpt>
      <trkpt lat="42.480912" lon="-1.973076">
        <ele>434.040</ele>
        <time>2019-09-22T18:23:51Z</time>
      </trkpt>
      <trkpt lat="42.480944" lon="-1.972754">
        <ele>432.397</ele>
        <time>2019-09-22T18:24:01Z</time>
      </trkpt>
      <trkpt lat="42.481561" lon="-1.972604">
        <ele>432.321</ele>
        <time>2019-09-22T18:24:11Z</time>
      </trkpt>
      <trkpt lat="42.481925" lon="-1.973248">
        <ele>438.873</ele>
        <time>2019-09-22T18:24:21Z</time>
      </trkpt>
      <trkpt lat="42.482906" lon="-1.972625">
        <ele>432.782</ele>
        <time>2019-09-22T18:24:31Z</time>
      </trkpt>
      <trkpt lat="42.32733" lon="-1.7338300000000002">
        <ele>289.84000000000003</ele>
      </trkpt>
      <trkpt lat="42.326800000000006" lon="-1.73351">
        <ele>289.66</ele>
      </trkpt>
      <trkpt lat="42.32623000081474" lon="-1.7331099964596943">
        <ele>288.81</ele>
      </trkpt>
      <trkpt lat="42.325660000000006" lon="-1.7327100000000002">
        <ele>288.90000000000003</ele>
      </trkpt>
      <trkpt lat="42.324902503400054" lon="-1.7321974814721395">
        <ele>288.98</ele>
      </trkpt>
      <trkpt lat="42.324145004517895" lon="-1.731684975286127">
        <ele>288.37</ele>
      </trkpt>
      <trkpt lat="42.3233875033536" lon="-1.7311724814413754">
        <ele>288.05</ele>
      </trkpt>
      <trkpt lat="42.322630000000004" lon="-1.73066">
        <ele>287.18000000000006</ele>
      </trkpt>
      <trkpt lat="42.322410000000005" lon="-1.7305400000000002">
        <ele>287.18000000000006</ele>
      </trkpt>
      <trkpt lat="42.32224" lon="-1.73039">
        <ele>287.38</ele>
      </trkpt>
      <trkpt lat="42.32208000000001" lon="-1.73011">
        <ele>287.43</ele>
      </trkpt>
      <trkpt lat="42.32198" lon="-1.72998">
        <ele>287.19</ele>
      </trkpt>
      <trkpt lat="42.3218" lon="-1.72967">
        <ele>287.1</ele>
      </trkpt>
      <trkpt lat="42.32155" lon="-1.72913">
        <ele>287.06000000000006</ele>
      </trkpt>
      <trkpt lat="42.321470000000005" lon="-1.729">
        <ele>287.06000000000006</ele>
      </trkpt>
      <trkpt lat="42.3211" lon="-1.72862">
        <ele>287.07000000000005</ele>
      </trkpt>
      <trkpt lat="42.32036" lon="-1.7280600000000002">
        <ele>287.65000000000003</ele>
      </trkpt>
      <trkpt lat="42.32036" lon="-1.72794">
        <ele>287.69</ele>
      </trkpt>
      <trkpt lat="42.32036" lon="-1.7280600000000002">
        <ele>287.65000000000003</ele>
      </trkpt>
      <trkpt lat="42.32016" lon="-1.7278600000000002">
        <ele>287.53000000000003</ele>
      </trkpt>
      <trkpt lat="42.320060000000005" lon="-1.72785">
        <ele>287.53000000000003</ele>
      </trkpt>
      <trkpt lat="42.31989" lon="-1.72794">
        <ele>287.53000000000003</ele>
      </trkpt>
      <trkpt lat="42.319300000000005" lon="-1.72835">
        <ele>287.37</ele>
      </trkpt>
      <trkpt lat="42.319140000000004" lon="-1.72856">
        <ele>287.37</ele>
      </trkpt>
      <trkpt lat="42.31913" lon="-1.7283300000000001">
        <ele>287.37</ele>
      </trkpt>
      <trkpt lat="42.31904" lon="-1.7281400000000002">
        <ele>288.03000000000003</ele>
      </trkpt>
      <trkpt lat="42.31897" lon="-1.72818">
        <ele>288.03000000000003</ele>
      </trkpt>
      <trkpt lat="42.318740000000005" lon="-1.72815">
        <ele>288.44</ele>
      </trkpt>
      <trkpt lat="42.31861000000001" lon="-1.7280200000000001">
        <ele>288.44</ele>
      </trkpt>
      <trkpt lat="42.31841" lon="-1.7277000000000002">
        <ele>289.22</ele>
      </trkpt>
      <trkpt lat="42.318160000000006" lon="-1.72706">
        <ele>289.49</ele>
      </trkpt>
      <trkpt lat="42.31806" lon="-1.72663">
        <ele>289.76</ele>
      </trkpt>
      <trkpt lat="42.318020000000004" lon="-1.72595">
        <ele>290.40999999999997</ele>
      </trkpt>
      <trkpt lat="42.31803" lon="-1.7253100000000001">
        <ele>291.74</ele>
      </trkpt>
      <trkpt lat="42.31805000000001" lon="-1.7251">
        <ele>292.03000000000003</ele>
      </trkpt>
      <trkpt lat="42.31812" lon="-1.72476">
        <ele>292.32</ele>
      </trkpt>
      <trkpt lat="42.31823000000001" lon="-1.72452">
        <ele>292.53000000000003</ele>
      </trkpt>
      <trkpt lat="42.31823000000001" lon="-1.72432">
        <ele>292.62000000000006</ele>
      </trkpt>
      <trkpt lat="42.318070000000006" lon="-1.72408">
        <ele>292.43</ele>
      </trkpt>
      <trkpt lat="42.31805000000001" lon="-1.72388">
        <ele>292.79</ele>
      </trkpt>
      <trkpt lat="42.318380000000005" lon="-1.7235500000000001">
        <ele>293.33000000000004</ele>
      </trkpt>
      <trkpt lat="42.319100000000006" lon="-1.7232800000000001">
        <ele>292.96</ele>
      </trkpt>
      <trkpt lat="42.319805000050614" lon="-1.7231050019811762">
        <ele>292.61</ele>
      </trkpt>
      <trkpt lat="42.320510000000006" lon="-1.72293">
        <ele>291.69</ele>
      </trkpt>
      <trkpt lat="42.321180000000005" lon="-1.72279">
        <ele>291.22</ele>
      </trkpt>
      <trkpt lat="42.321250000000006" lon="-1.7223300000000001">
        <ele>291.22</ele>
      </trkpt>
      <trkpt lat="42.321246677826515" lon="-1.7211966665158405">
        <ele>291.22</ele>
      </trkpt>
      <trkpt lat="42.32124334449309" lon="-1.720063333151561">
        <ele>288.43</ele>
      </trkpt>
      <trkpt lat="42.32124" lon="-1.71893">
        <ele>288.43</ele>
      </trkpt>
      <trkpt lat="42.321180000000005" lon="-1.7189">
        <ele>288.43</ele>
      </trkpt>
      <trkpt lat="42.32097" lon="-1.7190400000000001">
        <ele>288.43</ele>
      </trkpt>
      <trkpt lat="42.3209" lon="-1.719">
        <ele>288.43</ele>
      </trkpt>
      <trkpt lat="42.32103" lon="-1.7186800000000002">
        <ele>288.43</ele>
      </trkpt>
      <trkpt lat="42.32103" lon="-1.71869">
        <ele>288.43</ele>
      </trkpt>
      <trkpt lat="42.3209" lon="-1.719">
        <ele>288.43</ele>
      </trkpt>
      <trkpt lat="42.32097" lon="-1.7190400000000001">
        <ele>288.43</ele>
      </trkpt>
      <trkpt lat="42.3209" lon="-1.719">
        <ele>288.43</ele>
      </trkpt>
      <trkpt lat="42.32114000000001" lon="-1.71842">
        <ele>288.43</ele>
      </trkpt>
      <trkpt lat="42.321340000000006" lon="-1.71832">
        <ele>288.43</ele>
      </trkpt>
      <trkpt lat="42.32208000027958" lon="-1.7181400042345372">
        <ele>288.49</ele>
      </trkpt>
      <trkpt lat="42.32282000027765" lon="-1.7179600042350749">
        <ele>288.49</ele>
      </trkpt>
      <trkpt lat="42.32356" lon="-1.71778">
        <ele>288.93</ele>
      </trkpt>
      <trkpt lat="42.32399" lon="-1.71757">
        <ele>289.51000000000005</ele>
      </trkpt>
      <trkpt lat="42.324360000000006" lon="-1.7170400000000001">
        <ele>289.54</ele>
      </trkpt>
      <trkpt lat="42.32488000664688" lon="-1.7163250177513514">
        <ele>289.54</ele>
      </trkpt>
      <trkpt lat="42.325400008852064" lon="-1.7156100236831764">
        <ele>289.54</ele>
      </trkpt>
      <trkpt lat="42.325920006615405" lon="-1.7148950177951654">
        <ele>289.63</ele>
      </trkpt>
      <trkpt lat="42.326440000000005" lon="-1.71418">
        <ele>289.63</ele>
      </trkpt>
      <trkpt lat="42.32661" lon="-1.71405">
        <ele>289.63</ele>
      </trkpt>
      <trkpt lat="42.32678000000001" lon="-1.71398">
        <ele>289.67</ele>
      </trkpt>
      <trkpt lat="42.32751750012409" lon="-1.7140824963931292">
        <ele>290.61</ele>
      </trkpt>
      <trkpt lat="42.32825500015689" lon="-1.7141849951895698">
        <ele>290.68000000000006</ele>
      </trkpt>
      <trkpt lat="42.3289925000984" lon="-1.7142874963894401">
        <ele>290.44</ele>
      </trkpt>
      <trkpt lat="42.329730000000005" lon="-1.71439">
        <ele>289.72</ele>
      </trkpt>
      <trkpt lat="42.3304075000001" lon="-1.714399999676848">
        <ele>289.72</ele>
      </trkpt>
      <trkpt lat="42.3310849999993" lon="-1.714409999569112">
        <ele>289.78000000000003</ele>
      </trkpt>
      <trkpt lat="42.331762499997645" lon="-1.7144199996768021">
        <ele>289.78000000000003</ele>
      </trkpt>
      <trkpt lat="42.332440000000005" lon="-1.7144300000000001">
        <ele>290.61</ele>
      </trkpt>
      <trkpt lat="42.33276" lon="-1.7144300000000001">
        <ele>290.98</ele>
      </trkpt>
      <trkpt lat="42.33292" lon="-1.71436">
        <ele>291.6</ele>
      </trkpt>
      <trkpt lat="42.33332" lon="-1.71388">
        <ele>291.86</ele>
      </trkpt>
      <trkpt lat="42.333650000000006" lon="-1.7134">
        <ele>292.46</ele>
      </trkpt>
      <trkpt lat="42.33393" lon="-1.71317">
        <ele>292.82</ele>
      </trkpt>
      <trkpt lat="42.33451" lon="-1.71286">
        <ele>293.15000000000003</ele>
      </trkpt>
      <trkpt lat="42.334920000000004" lon="-1.7125000000000001">
        <ele>294.69</ele>
      </trkpt>
      <trkpt lat="42.33527" lon="-1.71236">
        <ele>295.52</ele>
      </trkpt>
      <trkpt lat="42.3357" lon="-1.71201">
        <ele>295.8</ele>
      </trkpt>
      <trkpt lat="42.3357" lon="-1.7120400000000002">
        <ele>295.66</ele>
      </trkpt>
      <trkpt lat="42.336040000000004" lon="-1.7125700000000001">
        <ele>295.42</ele>
      </trkpt>
      <trkpt lat="42.33679" lon="-1.7131500000000002">
        <ele>296.53000000000003</ele>
      </trkpt>
      <trkpt lat="42.336850000000005" lon="-1.71262">
        <ele>296.53000000000003</ele>
      </trkpt>
      <trkpt lat="42.336850000000005" lon="-1.71229">
        <ele>296.53000000000003</ele>
      </trkpt>
      <trkpt lat="42.33693" lon="-1.71205">
        <ele>295.13</ele>
      </trkpt>
      <trkpt lat="42.337160000000004" lon="-1.71195">
        <ele>295.13</ele>
      </trkpt>
      <trkpt lat="42.337520000000005" lon="-1.71188">
        <ele>295.13</ele>
      </trkpt>
      <trkpt lat="42.337630000000004" lon="-1.7118200000000001">
        <ele>295.13</ele>
      </trkpt>
      <trkpt lat="42.33762" lon="-1.7118200000000001">
        <ele>295.13</ele>
      </trkpt>
      <trkpt lat="42.337810000000005" lon="-1.7117200000000001">
        <ele>295.13</ele>
      </trkpt>
      <trkpt lat="42.33852" lon="-1.7111">
        <ele>293.82</ele>
      </trkpt>
      <trkpt lat="42.33883" lon="-1.7107">
        <ele>293.82</ele>
      </trkpt>
      <trkpt lat="42.33910500236814" lon="-1.709970003051979">
        <ele>294.00000000000006</ele>
      </trkpt>
      <trkpt lat="42.339380000000006" lon="-1.70924">
        <ele>294.00000000000006</ele>
      </trkpt>
      <trkpt lat="42.33962333817768" lon="-1.708493339111909">
        <ele>294.73</ele>
      </trkpt>
      <trkpt lat="42.33986667151116" lon="-1.7077466724448582">
        <ele>295.22</ele>
      </trkpt>
      <trkpt lat="42.34011" lon="-1.707">
        <ele>295.32</ele>
      </trkpt>
      <trkpt lat="42.340120000000006" lon="-1.70734">
        <ele>295.28000000000003</ele>
      </trkpt>
      <trkpt lat="42.340340002209246" lon="-1.7066250025399825">
        <ele>294.16</ele>
      </trkpt>
      <trkpt lat="42.34056" lon="-1.70591">
        <ele>293.92</ele>
      </trkpt>
      <trkpt lat="42.340860000000006" lon="-1.70513">
        <ele>294.29</ele>
      </trkpt>
      <trkpt lat="42.341213337420314" lon="-1.7044433410703028">
        <ele>294.58</ele>
      </trkpt>
      <trkpt lat="42.341566670743624" lon="-1.703756674423161">
        <ele>294.86</ele>
      </trkpt>
      <trkpt lat="42.34192" lon="-1.70307">
        <ele>294.94000000000005</ele>
      </trkpt>
      <trkpt lat="42.34221" lon="-1.70253">
        <ele>295.03000000000003</ele>
      </trkpt>
      <trkpt lat="42.34221" lon="-1.7025400000000002">
        <ele>295.03000000000003</ele>
      </trkpt>
      <trkpt lat="42.3423" lon="-1.7023700000000002">
        <ele>295.14</ele>
      </trkpt>
      <trkpt lat="42.34179" lon="-1.70195">
        <ele>294.36</ele>
      </trkpt>
      <trkpt lat="42.34149" lon="-1.70144">
        <ele>294.31</ele>
      </trkpt>
      <trkpt lat="42.341280000000005" lon="-1.7011800000000001">
        <ele>295.03000000000003</ele>
      </trkpt>
      <trkpt lat="42.340680000000006" lon="-1.70066">
        <ele>294.54</ele>
      </trkpt>
      <trkpt lat="42.34056" lon="-1.7003800000000002">
        <ele>294.50000000000006</ele>
      </trkpt>
      <trkpt lat="42.340590000000006" lon="-1.7001600000000001">
        <ele>294.48</ele>
      </trkpt>
      <trkpt lat="42.34075000000001" lon="-1.69991">
        <ele>294.15000000000003</ele>
      </trkpt>
      <trkpt lat="42.34141" lon="-1.69947">
        <ele>293.67</ele>
      </trkpt>
      <trkpt lat="42.3418400003628" lon="-1.6992400015018432">
        <ele>293.67</ele>
      </trkpt>
      <trkpt lat="42.342270000000006" lon="-1.6990100000000001">
        <ele>293.67</ele>
      </trkpt>
      <trkpt lat="42.342470000000006" lon="-1.69886">
        <ele>293.67</ele>
      </trkpt>
      <trkpt lat="42.342710000000004" lon="-1.69856">
        <ele>293.67</ele>
      </trkpt>
      <trkpt lat="42.34311" lon="-1.69785">
        <ele>293.67</ele>
      </trkpt>
      <trkpt lat="42.34335" lon="-1.6973500000000001">
        <ele>294.45000000000005</ele>
      </trkpt>
      <trkpt lat="42.3434" lon="-1.69707">
        <ele>294.45000000000005</ele>
      </trkpt>
      <trkpt lat="42.343430001631724" lon="-1.6964599999841674">
        <ele>294.45000000000005</ele>
      </trkpt>
      <trkpt lat="42.34346" lon="-1.69585">
        <ele>294.45000000000005</ele>
      </trkpt>
      <trkpt lat="42.343455005946765" lon="-1.6946799997857576">
        <ele>294.45000000000005</ele>
      </trkpt>
      <trkpt lat="42.343450000000004" lon="-1.69351">
        <ele>294.45000000000005</ele>
      </trkpt>
      <trkpt lat="42.343500000000006" lon="-1.69334">
        <ele>294.45000000000005</ele>
      </trkpt>
      <trkpt lat="42.3436" lon="-1.6931800000000001">
        <ele>294.45000000000005</ele>
      </trkpt>
      <trkpt lat="42.343740000000004" lon="-1.69314">
        <ele>294.45000000000005</ele>
      </trkpt>
      <trkpt lat="42.34416" lon="-1.6931">
        <ele>294.42</ele>
      </trkpt>
      <trkpt lat="42.344640000000005" lon="-1.693">
        <ele>294.42</ele>
      </trkpt>
      <trkpt lat="42.345000000000006" lon="-1.69286">
        <ele>294.42</ele>
      </trkpt>
      <trkpt lat="42.34512" lon="-1.6928">
        <ele>294.42</ele>
      </trkpt>
      <trkpt lat="42.345110000000005" lon="-1.6928">
        <ele>294.42</ele>
      </trkpt>
      <trkpt lat="42.34526" lon="-1.69273">
        <ele>294.42</ele>
      </trkpt>
      <trkpt lat="42.345940000000006" lon="-1.69225">
        <ele>294.42</ele>
      </trkpt>
      <trkpt lat="42.34608" lon="-1.6920600000000001">
        <ele>294.42</ele>
      </trkpt>
      <trkpt lat="42.34624" lon="-1.6917200000000001">
        <ele>294.42</ele>
      </trkpt>
      <trkpt lat="42.3464" lon="-1.6912">
        <ele>294.42</ele>
      </trkpt>
      <trkpt lat="42.346450000000004" lon="-1.6907400000000001">
        <ele>294.42</ele>
      </trkpt>
      <trkpt lat="42.34644" lon="-1.69002">
        <ele>294.42</ele>
      </trkpt>
      <trkpt lat="42.346360000000004" lon="-1.68947">
        <ele>294.42</ele>
      </trkpt>
      <trkpt lat="42.346230000000006" lon="-1.6888">
        <ele>294.35</ele>
      </trkpt>
      <trkpt lat="42.346050000000005" lon="-1.68805">
        <ele>294.35</ele>
      </trkpt>
      <trkpt lat="42.34617" lon="-1.6873500000000001">
        <ele>294.35</ele>
      </trkpt>
      <trkpt lat="42.34619" lon="-1.68659">
        <ele>294.35</ele>
      </trkpt>
      <trkpt lat="42.346120000000006" lon="-1.68592">
        <ele>294.35</ele>
      </trkpt>
      <trkpt lat="42.345960000000005" lon="-1.68524">
        <ele>294.35</ele>
      </trkpt>
      <trkpt lat="42.34586" lon="-1.68463">
        <ele>294.36</ele>
      </trkpt>
      <trkpt lat="42.34588" lon="-1.68388">
        <ele>294.95000000000005</ele>
      </trkpt>
      <trkpt lat="42.34581" lon="-1.68334">
        <ele>295.31</ele>
      </trkpt>
      <trkpt lat="42.345650000000006" lon="-1.68273">
        <ele>295.33000000000004</ele>
      </trkpt>
      <trkpt lat="42.34566" lon="-1.68199">
        <ele>295.33000000000004</ele>
      </trkpt>
      <trkpt lat="42.34606" lon="-1.68202">
        <ele>295.33000000000004</ele>
      </trkpt>
      <trkpt lat="42.34622" lon="-1.68198">
        <ele>295.33000000000004</ele>
      </trkpt>
      <trkpt lat="42.34675" lon="-1.68172">
        <ele>296.18</ele>
      </trkpt>
      <trkpt lat="42.34722" lon="-1.68165">
        <ele>296.28000000000003</ele>
      </trkpt>
      <trkpt lat="42.347970000000004" lon="-1.6813300000000002">
        <ele>297.64</ele>
      </trkpt>
      <trkpt lat="42.347970000000004" lon="-1.68134">
        <ele>297.64</ele>
      </trkpt>
      <trkpt lat="42.348440000000004" lon="-1.6811">
        <ele>297.95000000000005</ele>
      </trkpt>
      <trkpt lat="42.34814" lon="-1.68002">
        <ele>297.96</ele>
      </trkpt>
      <trkpt lat="42.34790500122505" lon="-1.6794749978109018">
        <ele>298.24</ele>
      </trkpt>
      <trkpt lat="42.34767" lon="-1.67893">
        <ele>298.24</ele>
      </trkpt>
      <trkpt lat="42.347410001041546" lon="-1.67842999784621">
        <ele>298.28000000000003</ele>
      </trkpt>
      <trkpt lat="42.347150000000006" lon="-1.6779300000000001">
        <ele>298.23</ele>
      </trkpt>
      <trkpt lat="42.347060000000006" lon="-1.67771">
        <ele>298.07</ele>
      </trkpt>
      <trkpt lat="42.34698" lon="-1.67683">
        <ele>297.63</ele>
      </trkpt>
      <trkpt lat="42.346830000000004" lon="-1.67636">
        <ele>297.51</ele>
      </trkpt>
      <trkpt lat="42.34658" lon="-1.67565">
        <ele>297.57</ele>
      </trkpt>
      <trkpt lat="42.34655" lon="-1.67548">
        <ele>297.56000000000006</ele>
      </trkpt>
      <trkpt lat="42.346540000000005" lon="-1.6746500000000002">
        <ele>297.8</ele>
      </trkpt>
      <trkpt lat="42.3466" lon="-1.67412">
        <ele>298.01</ele>
      </trkpt>
      <trkpt lat="42.34645500492243" lon="-1.6730549975042772">
        <ele>298.77000000000004</ele>
      </trkpt>
      <trkpt lat="42.34631" lon="-1.67199">
        <ele>298.78000000000003</ele>
      </trkpt>
      <trkpt lat="42.34635" lon="-1.67182">
        <ele>298.78000000000003</ele>
      </trkpt>
      <trkpt lat="42.34655" lon="-1.6713500000000001">
        <ele>298.78000000000003</ele>
      </trkpt>
      <trkpt lat="42.34666" lon="-1.67104">
        <ele>298.78000000000003</ele>
      </trkpt>
      <trkpt lat="42.346900000000005" lon="-1.67019">
        <ele>298.78000000000003</ele>
      </trkpt>
      <trkpt lat="42.34723" lon="-1.66921">
        <ele>298.73</ele>
      </trkpt>
      <trkpt lat="42.34758000402263" lon="-1.6682550051528764">
        <ele>298.73</ele>
      </trkpt>
      <trkpt lat="42.347930000000005" lon="-1.6673000000000002">
        <ele>298.73</ele>
      </trkpt>
      <trkpt lat="42.347930000000005" lon="-1.66731">
        <ele>298.73</ele>
      </trkpt>
      <trkpt lat="42.348020000000005" lon="-1.66707">
        <ele>298.73</ele>
      </trkpt>
      <trkpt lat="42.34765" lon="-1.66677">
        <ele>299.28000000000003</ele>
      </trkpt>
      <trkpt lat="42.34741" lon="-1.6666200000000002">
        <ele>299.28000000000003</ele>
      </trkpt>
      <trkpt lat="42.34718" lon="-1.66649">
        <ele>298.67</ele>
      </trkpt>
      <trkpt lat="42.34664" lon="-1.66605">
        <ele>297.23</ele>
      </trkpt>
      <trkpt lat="42.346560000000004" lon="-1.6659400000000002">
        <ele>297.23</ele>
      </trkpt>
      <trkpt lat="42.346410000000006" lon="-1.66541">
        <ele>297.23</ele>
      </trkpt>
      <trkpt lat="42.346153340995556" lon="-1.6644733258263642">
        <ele>297.23</ele>
      </trkpt>
      <trkpt lat="42.345896674367594" lon="-1.6635366593010792">
        <ele>297.00000000000006</ele>
      </trkpt>
      <trkpt lat="42.34564" lon="-1.6626">
        <ele>297.00000000000006</ele>
      </trkpt>
      <trkpt lat="42.345530000000004" lon="-1.66226">
        <ele>297.00000000000006</ele>
      </trkpt>
      <trkpt lat="42.34514500298377" lon="-1.6614299948972038">
        <ele>297.22</ele>
      </trkpt>
      <trkpt lat="42.34476" lon="-1.6606">
        <ele>298.41</ele>
      </trkpt>
      <trkpt lat="42.344710000000006" lon="-1.66039">
        <ele>298.51</ele>
      </trkpt>
      <trkpt lat="42.34470334052812" lon="-1.6594799997060101">
        <ele>299.14</ele>
      </trkpt>
      <trkpt lat="42.3446966738607" lon="-1.6585699996049115">
        <ele>299.28000000000003</ele>
      </trkpt>
      <trkpt lat="42.34469" lon="-1.6576600000000001">
        <ele>299.42</ele>
      </trkpt>
      <trkpt lat="42.34474000470135" lon="-1.6566200007805576">
        <ele>299.74</ele>
      </trkpt>
      <trkpt lat="42.34479" lon="-1.65558">
        <ele>299.9</ele>
      </trkpt>
      <trkpt lat="42.344550000000005" lon="-1.65555">
        <ele>299.98</ele>
      </trkpt>
      <trkpt lat="42.34454" lon="-1.65555">
        <ele>299.98</ele>
      </trkpt>
      <trkpt lat="42.34427" lon="-1.65552">
        <ele>300.11</ele>
      </trkpt>
      <trkpt lat="42.34418" lon="-1.65548">
        <ele>300.11</ele>
      </trkpt>
      <trkpt lat="42.34409" lon="-1.65541">
        <ele>300.11</ele>
      </trkpt>
      <trkpt lat="42.34396" lon="-1.65521">
        <ele>300.39000000000004</ele>
      </trkpt>
      <trkpt lat="42.34391" lon="-1.65474">
        <ele>300.66</ele>
      </trkpt>
      <trkpt lat="42.34398" lon="-1.6537300000000001">
        <ele>300.28000000000003</ele>
      </trkpt>
      <trkpt lat="42.34402" lon="-1.65277">
        <ele>300.39000000000004</ele>
      </trkpt>
      <trkpt lat="42.344100000000005" lon="-1.65243">
        <ele>300.55</ele>
      </trkpt>
      <trkpt lat="42.34423" lon="-1.65226">
        <ele>300.73</ele>
      </trkpt>
      <trkpt lat="42.34498000000001" lon="-1.65178">
        <ele>302.34</ele>
      </trkpt>
      <trkpt lat="42.345270000000006" lon="-1.65155">
        <ele>302.51</ele>
      </trkpt>
      <trkpt lat="42.345470000000006" lon="-1.6513200000000001">
        <ele>302.83000000000004</ele>
      </trkpt>
      <trkpt lat="42.34581" lon="-1.65087">
        <ele>302.9</ele>
      </trkpt>
      <trkpt lat="42.346150001456465" lon="-1.650295003075951">
        <ele>302.86</ele>
      </trkpt>
      <trkpt lat="42.34649" lon="-1.64972">
        <ele>302.94000000000005</ele>
      </trkpt>
      <trkpt lat="42.34667" lon="-1.64948">
        <ele>303.19</ele>
      </trkpt>
      <trkpt lat="42.346790000000006" lon="-1.6493700000000002">
        <ele>303.55</ele>
      </trkpt>
      <trkpt lat="42.34678" lon="-1.6493700000000002">
        <ele>303.54</ele>
      </trkpt>
      <trkpt lat="42.34705" lon="-1.6491500000000001">
        <ele>304.42</ele>
      </trkpt>
      <trkpt lat="42.34713" lon="-1.6490200000000002">
        <ele>304.42</ele>
      </trkpt>
      <trkpt lat="42.346510002468506" lon="-1.6484866561440839">
        <ele>305.16</ele>
      </trkpt>
      <trkpt lat="42.345890002465374" lon="-1.6479533228082068">
        <ele>305.15000000000003</ele>
      </trkpt>
      <trkpt lat="42.345270000000006" lon="-1.64742">
        <ele>302.19</ele>
      </trkpt>
      <trkpt lat="42.345150000000004" lon="-1.64741">
        <ele>302.55</ele>
      </trkpt>
      <trkpt lat="42.34507000000001" lon="-1.64745">
        <ele>302.55</ele>
      </trkpt>
      <trkpt lat="42.3447" lon="-1.64792">
        <ele>301.37</ele>
      </trkpt>
      <trkpt lat="42.34415000569486" lon="-1.647109985818906">
        <ele>303.91</ele>
      </trkpt>
      <trkpt lat="42.34360000568866" lon="-1.6462999858099983">
        <ele>304.71000000000004</ele>
      </trkpt>
      <trkpt lat="42.343050000000005" lon="-1.6454900000000001">
        <ele>305.39000000000004</ele>
      </trkpt>
      <trkpt lat="42.343749" lon="-1.646597">
        <ele>303.693</ele>
        <time>2019-09-20T09:01:38Z</time>
      </trkpt>
      <trkpt lat="42.342432" lon="-1.644580">
        <ele>305.065</ele>
        <time>2019-09-20T09:01:48Z</time>
      </trkpt>
      <trkpt lat="42.341512" lon="-1.642606">
        <ele>309.821</ele>
        <time>2019-09-20T09:01:58Z</time>
      </trkpt>
      <trkpt lat="42.343035" lon="-1.640954">
        <ele>321.508</ele>
        <time>2019-09-20T09:02:08Z</time>
      </trkpt>
      <trkpt lat="42.343638" lon="-1.638529">
        <ele>324.413</ele>
        <time>2019-09-20T09:02:18Z</time>
      </trkpt>
      <trkpt lat="42.345319" lon="-1.637306">
        <ele>335.850</ele>
        <time>2019-09-20T09:02:28Z</time>
      </trkpt>
      <trkpt lat="42.345572" lon="-1.634431">
        <ele>342.813</ele>
        <time>2019-09-20T09:02:38Z</time>
      </trkpt>
      <trkpt lat="42.344494" lon="-1.632113">
        <ele>352.775</ele>
        <time>2019-09-20T09:02:48Z</time>
      </trkpt>
      <trkpt lat="42.344010" lon="-1.629571">
        <ele>359.872</ele>
        <time>2019-09-20T09:02:58Z</time>
      </trkpt>
      <trkpt lat="42.343669" lon="-1.627071">
        <ele>361.580</ele>
        <time>2019-09-20T09:03:08Z</time>
      </trkpt>
      <trkpt lat="42.343336" lon="-1.624367">
        <ele>364.468</ele>
        <time>2019-09-20T09:03:18Z</time>
      </trkpt>
      <trkpt lat="42.342654" lon="-1.621921">
        <ele>373.670</ele>
        <time>2019-09-20T09:03:28Z</time>
      </trkpt>
      <trkpt lat="42.341988" lon="-1.619861">
        <ele>380.456</ele>
        <time>2019-09-20T09:03:38Z</time>
      </trkpt>
      <trkpt lat="42.340370" lon="-1.617844">
        <ele>378.259</ele>
        <time>2019-09-20T09:03:48Z</time>
      </trkpt>
      <trkpt lat="42.338308" lon="-1.617973">
        <ele>357.214</ele>
        <time>2019-09-20T09:03:58Z</time>
      </trkpt>
      <trkpt lat="42.336262" lon="-1.618316">
        <ele>349.508</ele>
        <time>2019-09-20T09:04:08Z</time>
      </trkpt>
      <trkpt lat="42.333994" lon="-1.618423">
        <ele>339.629</ele>
        <time>2019-09-20T09:04:18Z</time>
      </trkpt>
      <trkpt lat="42.333249" lon="-1.618659">
        <ele>337.026</ele>
        <time>2019-09-20T09:04:28Z</time>
      </trkpt>
      <trkpt lat="42.332709" lon="-1.615784">
        <ele>337.879</ele>
        <time>2019-09-20T09:04:38Z</time>
      </trkpt>
      <trkpt lat="42.332328" lon="-1.613274">
        <ele>340.111</ele>
        <time>2019-09-20T09:04:48Z</time>
      </trkpt>
      <trkpt lat="42.332154" lon="-1.611557">
        <ele>340.298</ele>
        <time>2019-09-20T09:04:58Z</time>
      </trkpt>
      <trkpt lat="42.331678" lon="-1.608725">
        <ele>337.076</ele>
        <time>2019-09-20T09:05:08Z</time>
      </trkpt>
      <trkpt lat="42.332884" lon="-1.606364">
        <ele>335.014</ele>
        <time>2019-09-20T09:05:18Z</time>
      </trkpt>
      <trkpt lat="42.334977" lon="-1.606965">
        <ele>334.216</ele>
        <time>2019-09-20T09:05:28Z</time>
      </trkpt>
      <trkpt lat="42.336976" lon="-1.608295">
        <ele>332.743</ele>
        <time>2019-09-20T09:05:38Z</time>
      </trkpt>
      <trkpt lat="42.338530" lon="-1.609926">
        <ele>331.764</ele>
        <time>2019-09-20T09:05:48Z</time>
      </trkpt>
      <trkpt lat="42.340751" lon="-1.609411">
        <ele>326.010</ele>
        <time>2019-09-20T09:05:58Z</time>
      </trkpt>
      <trkpt lat="42.342400" lon="-1.611342">
        <ele>313.408</ele>
        <time>2019-09-20T09:06:08Z</time>
      </trkpt>
      <trkpt lat="42.343796" lon="-1.609368">
        <ele>312.088</ele>
        <time>2019-09-20T09:06:18Z</time>
      </trkpt>
      <trkpt lat="42.345541" lon="-1.607995">
        <ele>310.245</ele>
        <time>2019-09-20T09:06:28Z</time>
      </trkpt>
      <trkpt lat="42.347412" lon="-1.607652">
        <ele>308.568</ele>
        <time>2019-09-20T09:06:38Z</time>
      </trkpt>
      <trkpt lat="42.348966" lon="-1.606407">
        <ele>308.040</ele>
        <time>2019-09-20T09:06:48Z</time>
      </trkpt>
      <trkpt lat="42.349981" lon="-1.604261">
        <ele>308.797</ele>
        <time>2019-09-20T09:06:58Z</time>
      </trkpt>
      <trkpt lat="42.351567" lon="-1.603231">
        <ele>308.445</ele>
        <time>2019-09-20T09:07:08Z</time>
      </trkpt>
      <trkpt lat="42.351916" lon="-1.600828">
        <ele>309.043</ele>
        <time>2019-09-20T09:07:18Z</time>
      </trkpt>
      <trkpt lat="42.352772" lon="-1.598425">
        <ele>310.015</ele>
        <time>2019-09-20T09:07:28Z</time>
      </trkpt>
      <trkpt lat="42.353343" lon="-1.596150">
        <ele>309.998</ele>
        <time>2019-09-20T09:07:38Z</time>
      </trkpt>
      <trkpt lat="42.353216" lon="-1.593575">
        <ele>310.115</ele>
        <time>2019-09-20T09:07:48Z</time>
      </trkpt>
      <trkpt lat="42.351916" lon="-1.591794">
        <ele>310.126</ele>
        <time>2019-09-20T09:07:58Z</time>
      </trkpt>
      <trkpt lat="42.351488" lon="-1.590164">
        <ele>326.908</ele>
        <time>2019-09-20T09:08:08Z</time>
      </trkpt>
      <trkpt lat="42.352677" lon="-1.588233">
        <ele>328.073</ele>
        <time>2019-09-20T09:08:18Z</time>
      </trkpt>
      <trkpt lat="42.353850" lon="-1.586409">
        <ele>327.360</ele>
        <time>2019-09-20T09:08:28Z</time>
      </trkpt>
      <trkpt lat="42.354913" lon="-1.584327">
        <ele>320.753</ele>
        <time>2019-09-20T09:08:38Z</time>
      </trkpt>
      <trkpt lat="42.354897" lon="-1.582589">
        <ele>332.965</ele>
        <time>2019-09-20T09:08:48Z</time>
      </trkpt>
      <trkpt lat="42.356308" lon="-1.580958">
        <ele>317.962</ele>
        <time>2019-09-20T09:08:58Z</time>
      </trkpt>
      <trkpt lat="42.357989" lon="-1.579328">
        <ele>317.570</ele>
        <time>2019-09-20T09:09:08Z</time>
      </trkpt>
      <trkpt lat="42.358052" lon="-1.576710">
        <ele>318.628</ele>
        <time>2019-09-20T09:09:18Z</time>
      </trkpt>
      <trkpt lat="42.357450" lon="-1.573920">
        <ele>316.890</ele>
        <time>2019-09-20T09:09:28Z</time>
      </trkpt>
      <trkpt lat="42.357862" lon="-1.571324">
        <ele>319.361</ele>
        <time>2019-09-20T09:09:38Z</time>
      </trkpt>
      <trkpt lat="42.357878" lon="-1.570079">
        <ele>322.721</ele>
        <time>2019-09-20T09:09:48Z</time>
      </trkpt>
      <trkpt lat="42.356514" lon="-1.568234">
        <ele>331.313</ele>
        <time>2019-09-20T09:09:58Z</time>
      </trkpt>
      <trkpt lat="42.356292" lon="-1.566110">
        <ele>342.708</ele>
        <time>2019-09-20T09:10:08Z</time>
      </trkpt>
      <trkpt lat="42.356372" lon="-1.563299">
        <ele>346.240</ele>
        <time>2019-09-20T09:10:18Z</time>
      </trkpt>
      <trkpt lat="42.356530" lon="-1.560616">
        <ele>343.087</ele>
        <time>2019-09-20T09:10:28Z</time>
      </trkpt>
      <trkpt lat="42.356958" lon="-1.558321">
        <ele>346.990</ele>
        <time>2019-09-20T09:10:38Z</time>
      </trkpt>
      <trkpt lat="42.357846" lon="-1.556454">
        <ele>348.082</ele>
        <time>2019-09-20T09:10:48Z</time>
      </trkpt>
      <trkpt lat="42.358496" lon="-1.553814">
        <ele>346.869</ele>
        <time>2019-09-20T09:10:58Z</time>
      </trkpt>
      <trkpt lat="42.359146" lon="-1.551261">
        <ele>347.657</ele>
        <time>2019-09-20T09:11:08Z</time>
      </trkpt>
      <trkpt lat="42.359305" lon="-1.549759">
        <ele>346.365</ele>
        <time>2019-09-20T09:11:18Z</time>
      </trkpt>
      <trkpt lat="42.358465" lon="-1.549201">
        <ele>348.597</ele>
        <time>2019-09-20T09:11:28Z</time>
      </trkpt>
      <trkpt lat="42.35922" lon="-1.54245">
        <ele>349.67</ele>
      </trkpt>
      <trkpt lat="42.35962000000001" lon="-1.54261">
        <ele>348.36</ele>
      </trkpt>
      <trkpt lat="42.35980000000001" lon="-1.5427300000000002">
        <ele>348.36</ele>
      </trkpt>
      <trkpt lat="42.359820000000006" lon="-1.54261">
        <ele>348.59000000000003</ele>
      </trkpt>
      <trkpt lat="42.35986500306847" lon="-1.5417700005498052">
        <ele>348.96000000000004</ele>
      </trkpt>
      <trkpt lat="42.359910000000006" lon="-1.5409300000000001">
        <ele>348.25</ele>
      </trkpt>
      <trkpt lat="42.3598900026783" lon="-1.540144999785901">
        <ele>345.90000000000003</ele>
      </trkpt>
      <trkpt lat="42.35987" lon="-1.53936">
        <ele>346.24000000000007</ele>
      </trkpt>
      <trkpt lat="42.359950000000005" lon="-1.53827">
        <ele>347.19000000000005</ele>
      </trkpt>
      <trkpt lat="42.35987000363221" lon="-1.5373549987736448">
        <ele>347.6</ele>
      </trkpt>
      <trkpt lat="42.359790000000004" lon="-1.53644">
        <ele>346.37</ele>
      </trkpt>
      <trkpt lat="42.359790000000004" lon="-1.53604">
        <ele>345.91</ele>
      </trkpt>
      <trkpt lat="42.35981" lon="-1.53556">
        <ele>346.38</ele>
      </trkpt>
      <trkpt lat="42.35987000171549" lon="-1.5349350004061206">
        <ele>346.72</ele>
      </trkpt>
      <trkpt lat="42.359930000000006" lon="-1.53431">
        <ele>346.83000000000004</ele>
      </trkpt>
      <trkpt lat="42.35994" lon="-1.53387">
        <ele>346.65000000000003</ele>
      </trkpt>
      <trkpt lat="42.35983" lon="-1.53282">
        <ele>347.13000000000005</ele>
      </trkpt>
      <trkpt lat="42.359770000000005" lon="-1.53191">
        <ele>346.42</ele>
      </trkpt>
      <trkpt lat="42.359770000000005" lon="-1.53092">
        <ele>345.5</ele>
      </trkpt>
      <trkpt lat="42.359750000000005" lon="-1.5305900000000001">
        <ele>345.68000000000006</ele>
      </trkpt>
      <trkpt lat="42.35963000205358" lon="-1.5298949984116357">
        <ele>345.49</ele>
      </trkpt>
      <trkpt lat="42.35951" lon="-1.5292000000000001">
        <ele>345.93</ele>
      </trkpt>
      <trkpt lat="42.35937000325733" lon="-1.5283299978674656">
        <ele>345.6</ele>
      </trkpt>
      <trkpt lat="42.359230000000004" lon="-1.52746">
        <ele>344.38</ele>
      </trkpt>
      <trkpt lat="42.35909500186898" lon="-1.5267999984665483">
        <ele>344.92</ele>
      </trkpt>
      <trkpt lat="42.35896" lon="-1.52614">
        <ele>345.63000000000005</ele>
      </trkpt>
      <trkpt lat="42.358700000000006" lon="-1.5252400000000002">
        <ele>347.46000000000004</ele>
      </trkpt>
      <trkpt lat="42.358450000000005" lon="-1.52448">
        <ele>348.78000000000003</ele>
      </trkpt>
      <trkpt lat="42.358120002813" lon="-1.5236749957663471">
        <ele>351.02000000000004</ele>
      </trkpt>
      <trkpt lat="42.35779" lon="-1.5228700000000002">
        <ele>352.98</ele>
      </trkpt>
      <trkpt lat="42.35743" lon="-1.52187">
        <ele>352.57000000000005</ele>
      </trkpt>
      <trkpt lat="42.357330000000005" lon="-1.5215100000000001">
        <ele>352.43</ele>
      </trkpt>
      <trkpt lat="42.357290000000006" lon="-1.5213">
        <ele>352.5</ele>
      </trkpt>
      <trkpt lat="42.357730000000004" lon="-1.52106">
        <ele>349.44</ele>
      </trkpt>
      <trkpt lat="42.357980000000005" lon="-1.52072">
        <ele>348.24000000000007</ele>
      </trkpt>
      <trkpt lat="42.35806" lon="-1.52068">
        <ele>348.24000000000007</ele>
      </trkpt>
      <trkpt lat="42.358250000000005" lon="-1.52065">
        <ele>347.49</ele>
      </trkpt>
      <trkpt lat="42.358340000000005" lon="-1.52061">
        <ele>347.49</ele>
      </trkpt>
      <trkpt lat="42.358560000000004" lon="-1.5203200000000001">
        <ele>346.49</ele>
      </trkpt>
      <trkpt lat="42.358630000000005" lon="-1.52017">
        <ele>345.73</ele>
      </trkpt>
      <trkpt lat="42.35869" lon="-1.51997">
        <ele>344.74000000000007</ele>
      </trkpt>
      <trkpt lat="42.35873" lon="-1.5197">
        <ele>343.73</ele>
      </trkpt>
      <trkpt lat="42.35875" lon="-1.51919">
        <ele>341.86000000000007</ele>
      </trkpt>
      <trkpt lat="42.35878" lon="-1.51902">
        <ele>341.43</ele>
      </trkpt>
      <trkpt lat="42.35884" lon="-1.5189000000000001">
        <ele>340.62</ele>
      </trkpt>
      <trkpt lat="42.35893" lon="-1.51882">
        <ele>340.23</ele>
      </trkpt>
      <trkpt lat="42.359030000000004" lon="-1.51875">
        <ele>339.96000000000004</ele>
      </trkpt>
      <trkpt lat="42.359140000000004" lon="-1.5187300000000001">
        <ele>339.76</ele>
      </trkpt>
      <trkpt lat="42.35925" lon="-1.51878">
        <ele>339.4200000000001</ele>
      </trkpt>
      <trkpt lat="42.359500000000004" lon="-1.51899">
        <ele>339.14000000000004</ele>
      </trkpt>
      <trkpt lat="42.35958" lon="-1.51906">
        <ele>338.78000000000003</ele>
      </trkpt>
      <trkpt lat="42.35980000000001" lon="-1.51946">
        <ele>337.66</ele>
      </trkpt>
      <trkpt lat="42.36009000000001" lon="-1.51977">
        <ele>336.12</ele>
      </trkpt>
      <trkpt lat="42.360130000000005" lon="-1.51977">
        <ele>335.4200000000001</ele>
      </trkpt>
      <trkpt lat="42.36019" lon="-1.5197600000000002">
        <ele>335.4200000000001</ele>
      </trkpt>
      <trkpt lat="42.360240000000005" lon="-1.5197">
        <ele>335.4200000000001</ele>
      </trkpt>
      <trkpt lat="42.360450002054485" lon="-1.519020002125534">
        <ele>333.1</ele>
      </trkpt>
      <trkpt lat="42.36066" lon="-1.51834">
        <ele>333.1</ele>
      </trkpt>
      <trkpt lat="42.360730000000004" lon="-1.51821">
        <ele>333.1</ele>
      </trkpt>
      <trkpt lat="42.3610900012039" lon="-1.5177000028174963">
        <ele>333.1</ele>
      </trkpt>
      <trkpt lat="42.361450000000005" lon="-1.51719">
        <ele>333.1</ele>
      </trkpt>
      <trkpt lat="42.361630000000005" lon="-1.5169000000000001">
        <ele>333.1</ele>
      </trkpt>
      <trkpt lat="42.36177" lon="-1.51662">
        <ele>333.1</ele>
      </trkpt>
      <trkpt lat="42.361880000000006" lon="-1.51624">
        <ele>331.81000000000006</ele>
      </trkpt>
      <trkpt lat="42.361990001695304" lon="-1.515615001105081">
        <ele>331.81000000000006</ele>
      </trkpt>
      <trkpt lat="42.362100000000005" lon="-1.51499">
        <ele>331.81000000000006</ele>
      </trkpt>
      <trkpt lat="42.362100000000005" lon="-1.5138200000000002">
        <ele>331.81000000000006</ele>
      </trkpt>
      <trkpt lat="42.36211" lon="-1.51323">
        <ele>331.82</ele>
      </trkpt>
      <trkpt lat="42.36215000000001" lon="-1.51262">
        <ele>331.82</ele>
      </trkpt>
      <trkpt lat="42.36225667488996" lon="-1.511646670054662">
        <ele>331.82</ele>
      </trkpt>
      <trkpt lat="42.36236334154754" lon="-1.5106733368043388">
        <ele>331.82</ele>
      </trkpt>
      <trkpt lat="42.36247" lon="-1.5097">
        <ele>331.82</ele>
      </trkpt>
      <trkpt lat="42.36249" lon="-1.50876">
        <ele>331.82</ele>
      </trkpt>
      <trkpt lat="42.36258" lon="-1.50825">
        <ele>331.82</ele>
      </trkpt>
      <trkpt lat="42.36299" lon="-1.5071700000000001">
        <ele>328.92</ele>
      </trkpt>
      <trkpt lat="42.363200000000006" lon="-1.5067300000000001">
        <ele>328.92</ele>
      </trkpt>
      <trkpt lat="42.363640000000004" lon="-1.50601">
        <ele>328.92</ele>
      </trkpt>
      <trkpt lat="42.363710000000005" lon="-1.50591">
        <ele>328.92</ele>
      </trkpt>
      <trkpt lat="42.36379" lon="-1.50584">
        <ele>328.92</ele>
      </trkpt>
      <trkpt lat="42.36431" lon="-1.50553">
        <ele>328.92</ele>
      </trkpt>
      <trkpt lat="42.364650000000005" lon="-1.50523">
        <ele>328.92</ele>
      </trkpt>
      <trkpt lat="42.36510000168675" lon="-1.5046050044913566">
        <ele>328.92</ele>
      </trkpt>
      <trkpt lat="42.365550000000006" lon="-1.50398">
        <ele>328.92</ele>
      </trkpt>
      <trkpt lat="42.36578" lon="-1.50343">
        <ele>328.92</ele>
      </trkpt>
      <trkpt lat="42.36581" lon="-1.5031400000000001">
        <ele>328.92</ele>
      </trkpt>
      <trkpt lat="42.36585" lon="-1.5031">
        <ele>328.92</ele>
      </trkpt>
      <trkpt lat="42.36591000000001" lon="-1.5031">
        <ele>328.92</ele>
      </trkpt>
      <trkpt lat="42.36598" lon="-1.5020200000000001">
        <ele>329.57000000000005</ele>
      </trkpt>
      <trkpt lat="42.36601000321087" lon="-1.5011600004859111">
        <ele>329.87000000000006</ele>
      </trkpt>
      <trkpt lat="42.366040000000005" lon="-1.5003000000000002">
        <ele>330.11</ele>
      </trkpt>
      <trkpt lat="42.366040000000005" lon="-1.5003400000000002">
        <ele>330.11</ele>
      </trkpt>
      <trkpt lat="42.366040000000005" lon="-1.5005700000000002">
        <ele>330.08000000000004</ele>
      </trkpt>
      <trkpt lat="42.36516600023111" lon="-1.5006880065678163">
        <ele>330.08000000000004</ele>
      </trkpt>
      <trkpt lat="42.3642920003412" lon="-1.5008060098522686">
        <ele>333.44</ele>
      </trkpt>
      <trkpt lat="42.36341800033029" lon="-1.5009240098535483">
        <ele>333.44</ele>
      </trkpt>
      <trkpt lat="42.3625440001984" lon="-1.501042006571847">
        <ele>333.44</ele>
      </trkpt>
      <trkpt lat="42.361670000000004" lon="-1.50116">
        <ele>333.44</ele>
      </trkpt>
      <trkpt lat="42.36104" lon="-1.50126">
        <ele>333.44</ele>
      </trkpt>
      <trkpt lat="42.360890000000005" lon="-1.50123">
        <ele>333.44</ele>
      </trkpt>
      <trkpt lat="42.36026500010376" lon="-1.5010099977742095">
        <ele>333.44</ele>
      </trkpt>
      <trkpt lat="42.359640000000006" lon="-1.50079">
        <ele>333.44</ele>
      </trkpt>
      <trkpt lat="42.35897666853295" lon="-1.500326656885023">
        <ele>333.44</ele>
      </trkpt>
      <trkpt lat="42.358313335200386" lon="-1.4998633235523837">
        <ele>351.01000000000005</ele>
      </trkpt>
      <trkpt lat="42.35765000000001" lon="-1.4994">
        <ele>351.01000000000005</ele>
      </trkpt>
      <trkpt lat="42.357440000000004" lon="-1.49923">
        <ele>351.01000000000005</ele>
      </trkpt>
      <trkpt lat="42.35698500096425" lon="-1.4987899969332528">
        <ele>351.01000000000005</ele>
      </trkpt>
      <trkpt lat="42.35653000000001" lon="-1.49835">
        <ele>351.01000000000005</ele>
      </trkpt>
      <trkpt lat="42.3564" lon="-1.4981900000000001">
        <ele>351.01000000000005</ele>
      </trkpt>
      <trkpt lat="42.35598" lon="-1.4976">
        <ele>351.01000000000005</ele>
      </trkpt>
      <trkpt lat="42.35542" lon="-1.49689">
        <ele>351.01000000000005</ele>
      </trkpt>
      <trkpt lat="42.355160000000005" lon="-1.49672">
        <ele>351.01000000000005</ele>
      </trkpt>
      <trkpt lat="42.354380000000006" lon="-1.49638">
        <ele>351.01000000000005</ele>
      </trkpt>
      <trkpt lat="42.35428" lon="-1.49635">
        <ele>351.01000000000005</ele>
      </trkpt>
      <trkpt lat="42.354110000000006" lon="-1.49635">
        <ele>351.01000000000005</ele>
      </trkpt>
      <trkpt lat="42.35381" lon="-1.49639">
        <ele>351.01000000000005</ele>
      </trkpt>
      <trkpt lat="42.35342000000001" lon="-1.49652">
        <ele>351.01000000000005</ele>
      </trkpt>
      <trkpt lat="42.35329" lon="-1.49652">
        <ele>351.01000000000005</ele>
      </trkpt>
      <trkpt lat="42.35318" lon="-1.49649">
        <ele>351.01000000000005</ele>
      </trkpt>
      <trkpt lat="42.3525150009507" lon="-1.496217491343468">
        <ele>351.01000000000005</ele>
      </trkpt>
      <trkpt lat="42.35185000125612" lon="-1.4959449884534304">
        <ele>351.01000000000005</ele>
      </trkpt>
      <trkpt lat="42.351185000916296" lon="-1.4956724913296364">
        <ele>359.19</ele>
      </trkpt>
      <trkpt lat="42.35052" lon="-1.4954">
        <ele>359.19</ele>
      </trkpt>
      <trkpt lat="42.35036" lon="-1.49536">
        <ele>359.19</ele>
      </trkpt>
      <trkpt lat="42.34967500007265" lon="-1.4952599989144992">
        <ele>359.19</ele>
      </trkpt>
      <trkpt lat="42.34899" lon="-1.49516">
        <ele>359.19</ele>
      </trkpt>
      <trkpt lat="42.34841499988335" lon="-1.4950699991529812">
        <ele>359.19</ele>
      </trkpt>
      <trkpt lat="42.347840000000005" lon="-1.4949800000000002">
        <ele>359.19</ele>
      </trkpt>
      <trkpt lat="42.34781" lon="-1.4949700000000001">
        <ele>359.22</ele>
      </trkpt>
      <trkpt lat="42.347710000000006" lon="-1.49496">
        <ele>359.35</ele>
      </trkpt>
      <trkpt lat="42.34765" lon="-1.4938">
        <ele>362.92</ele>
      </trkpt>
      <trkpt lat="42.3477" lon="-1.4936">
        <ele>363.88000000000005</ele>
      </trkpt>
      <trkpt lat="42.34778" lon="-1.49344">
        <ele>365.14</ele>
      </trkpt>
      <trkpt lat="42.347930000000005" lon="-1.49333">
        <ele>366.06000000000006</ele>
      </trkpt>
      <trkpt lat="42.34812" lon="-1.49326">
        <ele>366.32000000000005</ele>
      </trkpt>
      <trkpt lat="42.348715000203605" lon="-1.4930400020848782">
        <ele>365.47</ele>
      </trkpt>
      <trkpt lat="42.34931" lon="-1.49282">
        <ele>364.68</ele>
      </trkpt>
      <trkpt lat="42.350020002018574" lon="-1.4923366775934221">
        <ele>363.91</ele>
      </trkpt>
      <trkpt lat="42.35073000200726" lon="-1.4918533442679724">
        <ele>362.56000000000006</ele>
      </trkpt>
      <trkpt lat="42.351440000000004" lon="-1.49137">
        <ele>362.04</ele>
      </trkpt>
      <trkpt lat="42.35181" lon="-1.4910700000000001">
        <ele>361.63</ele>
      </trkpt>
      <trkpt lat="42.35228750594107" lon="-1.4903950153810328">
        <ele>360.91</ele>
      </trkpt>
      <trkpt lat="42.35276500792315" lon="-1.489720020505886">
        <ele>361.95000000000005</ele>
      </trkpt>
      <trkpt lat="42.35324250594613" lon="-1.4890450153743164">
        <ele>360.64</ele>
      </trkpt>
      <trkpt lat="42.35372" lon="-1.4883700000000002">
        <ele>360.09000000000003</ele>
      </trkpt>
      <trkpt lat="42.354321683044205" lon="-1.4875017082349007">
        <ele>360.38000000000005</ele>
      </trkpt>
      <trkpt lat="42.35492335953702" lon="-1.4866333998441872">
        <ele>360.56000000000006</ele>
      </trkpt>
      <trkpt lat="42.355525029478216" lon="-1.4857650748273719">
        <ele>360.21000000000004</ele>
      </trkpt>
      <trkpt lat="42.3561266928675" lon="-1.4848967331839666">
        <ele>360.03000000000003</ele>
      </trkpt>
      <trkpt lat="42.35672834970462" lon="-1.4840283749134837">
        <ele>359.92</ele>
      </trkpt>
      <trkpt lat="42.357330000000005" lon="-1.48316">
        <ele>360.06000000000006</ele>
      </trkpt>
      <trkpt lat="42.35745" lon="-1.483">
        <ele>360.03000000000003</ele>
      </trkpt>
      <trkpt lat="42.357620000000004" lon="-1.48282">
        <ele>360.12000000000006</ele>
      </trkpt>
      <trkpt lat="42.357800000000005" lon="-1.48256">
        <ele>360.21000000000004</ele>
      </trkpt>
      <trkpt lat="42.35835000997308" lon="-1.481685022985745">
        <ele>360.52</ele>
      </trkpt>
      <trkpt lat="42.35890001329342" lon="-1.480810030654545">
        <ele>360.18000000000006</ele>
      </trkpt>
      <trkpt lat="42.35945000996081" lon="-1.479935023006022">
        <ele>360.57000000000005</ele>
      </trkpt>
      <trkpt lat="42.36000000000001" lon="-1.47906">
        <ele>360.57000000000005</ele>
      </trkpt>
      <trkpt lat="42.360020000000006" lon="-1.47886">
        <ele>360.61</ele>
      </trkpt>
      <trkpt lat="42.360060000000004" lon="-1.4787000000000001">
        <ele>360.61</ele>
      </trkpt>
      <trkpt lat="42.360130000000005" lon="-1.47859">
        <ele>360.73</ele>
      </trkpt>
      <trkpt lat="42.36069750865551" lon="-1.4777750220862091">
        <ele>360.57000000000005</ele>
      </trkpt>
      <trkpt lat="42.36126501153936" lon="-1.4769600294506646">
        <ele>361.03000000000003</ele>
      </trkpt>
      <trkpt lat="42.361832508651325" lon="-1.476145022092957">
        <ele>361.04</ele>
      </trkpt>
      <trkpt lat="42.3624" lon="-1.47533">
        <ele>361.1</ele>
      </trkpt>
      <trkpt lat="42.36298000416382" lon="-1.474640012707805">
        <ele>361.04</ele>
      </trkpt>
      <trkpt lat="42.363560004190546" lon="-1.4739500126762117">
        <ele>361.28000000000003</ele>
      </trkpt>
      <trkpt lat="42.364140000000006" lon="-1.47326">
        <ele>361.51000000000005</ele>
      </trkpt>
      <trkpt lat="42.3643" lon="-1.47299">
        <ele>361.39000000000004</ele>
      </trkpt>
      <trkpt lat="42.36435" lon="-1.47283">
        <ele>361.29</ele>
      </trkpt>
      <trkpt lat="42.36450002452921" lon="-1.4716420113394126">
        <ele>361.24</ele>
      </trkpt>
      <trkpt lat="42.36465003679435" lon="-1.4704540170052702">
        <ele>361.24</ele>
      </trkpt>
      <trkpt lat="42.36480003679535" lon="-1.4692660169979794">
        <ele>361.90000000000003</ele>
      </trkpt>
      <trkpt lat="42.364950024532064" lon="-1.4680780113179481">
        <ele>361.84000000000003</ele>
      </trkpt>
      <trkpt lat="42.365100000000005" lon="-1.46689">
        <ele>361.59000000000003</ele>
      </trkpt>
      <trkpt lat="42.36525" lon="-1.46608">
        <ele>361.18000000000006</ele>
      </trkpt>
      <trkpt lat="42.36543000650885" lon="-1.4652133383869488">
        <ele>361.39000000000004</ele>
      </trkpt>
      <trkpt lat="42.36561000649077" lon="-1.4643466718074865">
        <ele>361.31</ele>
      </trkpt>
      <trkpt lat="42.365790000000004" lon="-1.4634800000000001">
        <ele>361.04</ele>
      </trkpt>
      <trkpt lat="42.365860000000005" lon="-1.46333">
        <ele>361.24</ele>
      </trkpt>
      <trkpt lat="42.36594" lon="-1.4632100000000001">
        <ele>361.37</ele>
      </trkpt>
      <trkpt lat="42.36639500077732" lon="-1.4627450035336387">
        <ele>360.34000000000003</ele>
      </trkpt>
      <trkpt lat="42.36685000000001" lon="-1.46228">
        <ele>358.57000000000005</ele>
      </trkpt>
      <trkpt lat="42.36708" lon="-1.46202">
        <ele>356.87</ele>
      </trkpt>
      <trkpt lat="42.36741000000001" lon="-1.46158">
        <ele>355.95000000000005</ele>
      </trkpt>
      <trkpt lat="42.36757" lon="-1.46124">
        <ele>355.81</ele>
      </trkpt>
      <trkpt lat="42.36788000000001" lon="-1.46032">
        <ele>352.01000000000005</ele>
      </trkpt>
      <trkpt lat="42.36807" lon="-1.45988">
        <ele>351.5</ele>
      </trkpt>
      <trkpt lat="42.36818" lon="-1.45971">
        <ele>351.18000000000006</ele>
      </trkpt>
      <trkpt lat="42.36889000480335" lon="-1.458966683468581">
        <ele>349.01000000000005</ele>
      </trkpt>
      <trkpt lat="42.36960000480528" lon="-1.4582233501335464">
        <ele>346.22</ele>
      </trkpt>
      <trkpt lat="42.37031" lon="-1.45748">
        <ele>342.14000000000004</ele>
      </trkpt>
      <trkpt lat="42.37050000000001" lon="-1.45731">
        <ele>342.31</ele>
      </trkpt>
      <trkpt lat="42.37077" lon="-1.4572">
        <ele>342.24</ele>
      </trkpt>
      <trkpt lat="42.37104" lon="-1.4572">
        <ele>342.18</ele>
      </trkpt>
      <trkpt lat="42.3712" lon="-1.45724">
        <ele>342.01000000000005</ele>
      </trkpt>
      <trkpt lat="42.371340000000004" lon="-1.45733">
        <ele>341.66</ele>
      </trkpt>
      <trkpt lat="42.37189" lon="-1.4577900000000001">
        <ele>340.96000000000004</ele>
      </trkpt>
      <trkpt lat="42.372080000000004" lon="-1.4573500000000001">
        <ele>340.96000000000004</ele>
      </trkpt>
      <trkpt lat="42.37227" lon="-1.457">
        <ele>341.18</ele>
      </trkpt>
      <trkpt lat="42.37276000000001" lon="-1.45632">
        <ele>341.46000000000004</ele>
      </trkpt>
      <trkpt lat="42.3729" lon="-1.45608">
        <ele>341.30000000000007</ele>
      </trkpt>
      <trkpt lat="42.37301" lon="-1.45588">
        <ele>341.01000000000005</ele>
      </trkpt>
      <trkpt lat="42.37317" lon="-1.45551">
        <ele>340.36000000000007</ele>
      </trkpt>
      <trkpt lat="42.37357001368954" lon="-1.4544850195980996">
        <ele>340.45000000000005</ele>
      </trkpt>
      <trkpt lat="42.373970018249395" lon="-1.4534600261397914">
        <ele>340.16</ele>
      </trkpt>
      <trkpt lat="42.374370013679304" lon="-1.4524350196250244">
        <ele>339.99</ele>
      </trkpt>
      <trkpt lat="42.374770000000005" lon="-1.45141">
        <ele>340.01000000000005</ele>
      </trkpt>
      <trkpt lat="42.37518000492965" lon="-1.4503400071028465">
        <ele>340.42</ele>
      </trkpt>
      <trkpt lat="42.37559" lon="-1.44927">
        <ele>340.28000000000003</ele>
      </trkpt>
      <trkpt lat="42.375780000000006" lon="-1.4488">
        <ele>340.34000000000003</ele>
      </trkpt>
      <trkpt lat="42.376000000000005" lon="-1.44842">
        <ele>340.49</ele>
      </trkpt>
      <trkpt lat="42.376503336205325" lon="-1.4478466758396642">
        <ele>343.41</ele>
      </trkpt>
      <trkpt lat="42.377006669554156" lon="-1.4472733424887936">
        <ele>344.68</ele>
      </trkpt>
      <trkpt lat="42.37751" lon="-1.4467">
        <ele>344.44</ele>
      </trkpt>
      <trkpt lat="42.37774" lon="-1.44646">
        <ele>344.12</ele>
      </trkpt>
      <trkpt lat="42.377950000000006" lon="-1.4463000000000001">
        <ele>343.98</ele>
      </trkpt>
      <trkpt lat="42.37814" lon="-1.44622">
        <ele>344.78000000000003</ele>
      </trkpt>
      <trkpt lat="42.378260000000004" lon="-1.44618">
        <ele>346.27000000000004</ele>
      </trkpt>
      <trkpt lat="42.37883" lon="-1.44618">
        <ele>347.85</ele>
      </trkpt>
      <trkpt lat="42.37888" lon="-1.4461000000000002">
        <ele>347.85</ele>
      </trkpt>
      <trkpt lat="42.379020000000004" lon="-1.44618">
        <ele>347.69000000000005</ele>
      </trkpt>
      <trkpt lat="42.37989" lon="-1.4462000000000002">
        <ele>351.0</ele>
      </trkpt>
      <trkpt lat="42.38017000000001" lon="-1.44622">
        <ele>350.56000000000006</ele>
      </trkpt>
      <trkpt lat="42.380370000000006" lon="-1.4463000000000001">
        <ele>350.2</ele>
      </trkpt>
      <trkpt lat="42.378678" lon="-1.444697">
        <ele>539.045</ele>
        <time>2015-04-09T10:16:23Z</time>
      </trkpt>
      <trkpt lat="42.378584" lon="-1.444534">
        <ele>433.047</ele>
        <time>2015-04-09T10:17:16Z</time>
      </trkpt>
      <trkpt lat="42.378311" lon="-1.444640">
        <ele>410.011</ele>
        <time>2015-04-09T10:17:48Z</time>
      </trkpt>
      <trkpt lat="42.378170" lon="-1.444342">
        <ele>403.007</ele>
        <time>2015-04-09T10:21:17Z</time>
      </trkpt>
      <trkpt lat="42.378121" lon="-1.444448">
        <ele>403.033</ele>
        <time>2015-04-09T10:22:27Z</time>
      </trkpt>
      <trkpt lat="42.377536" lon="-1.444103">
        <ele>429.027</ele>
        <time>2015-04-09T10:23:37Z</time>
      </trkpt>
      <trkpt lat="42.377214" lon="-1.444170">
        <ele>402.045</ele>
        <time>2015-04-09T10:43:14Z</time>
      </trkpt>
      <trkpt lat="42.377488" lon="-1.444086">
        <ele>414.072</ele>
        <time>2015-04-09T10:44:01Z</time>
      </trkpt>
      <trkpt lat="42.378398" lon="-1.444225">
        <ele>403.099</ele>
        <time>2015-04-09T10:44:25Z</time>
      </trkpt>
      <trkpt lat="42.378036" lon="-1.441295">
        <ele>391.013</ele>
        <time>2015-04-09T10:53:55Z</time>
      </trkpt>
      <trkpt lat="42.378178" lon="-1.441756">
        <ele>399.066</ele>
        <time>2015-04-09T10:54:21Z</time>
      </trkpt>
      <trkpt lat="42.379641" lon="-1.441343">
        <ele>397.076</ele>
        <time>2015-04-09T10:55:18Z</time>
      </trkpt>
      <trkpt lat="42.380067" lon="-1.441831">
        <ele>404.090</ele>
        <time>2015-04-09T10:55:34Z</time>
      </trkpt>
      <trkpt lat="42.380504" lon="-1.441808">
        <ele>406.019</ele>
        <time>2015-04-09T10:55:45Z</time>
      </trkpt>
      <trkpt lat="42.380975" lon="-1.442101">
        <ele>402.007</ele>
        <time>2015-04-09T10:56:01Z</time>
      </trkpt>
      <trkpt lat="42.382084" lon="-1.441785">
        <ele>396.036</ele>
        <time>2015-04-09T10:56:30Z</time>
      </trkpt>
      <trkpt lat="42.381821" lon="-1.441066">
        <ele>400.070</ele>
        <time>2015-04-09T10:56:51Z</time>
      </trkpt>
      <trkpt lat="42.382107" lon="-1.441793">
        <ele>398.048</ele>
        <time>2015-04-09T10:57:12Z</time>
      </trkpt>
      <trkpt lat="42.382199" lon="-1.441719">
        <ele>399.025</ele>
        <time>2015-04-09T10:57:18Z</time>
      </trkpt>
      <trkpt lat="42.381701" lon="-1.437911">
        <ele>393.022</ele>
        <time>2015-04-09T10:58:10Z</time>
      </trkpt>
      <trkpt lat="42.382737" lon="-1.431823">
        <ele>397.086</ele>
        <time>2015-04-09T10:59:59Z</time>
      </trkpt>
      <trkpt lat="42.383690" lon="-1.428392">
        <ele>390.029</ele>
        <time>2015-04-09T11:00:56Z</time>
      </trkpt>
      <trkpt lat="42.384258" lon="-1.425385">
        <ele>398.061</ele>
        <time>2015-04-09T11:01:56Z</time>
      </trkpt>
      <trkpt lat="42.385525" lon="-1.422483">
        <ele>405.021</ele>
        <time>2015-04-09T11:02:57Z</time>
      </trkpt>
      <trkpt lat="42.386291" lon="-1.421792">
        <ele>395.013</ele>
        <time>2015-04-09T11:03:11Z</time>
      </trkpt>
      <trkpt lat="42.387023" lon="-1.419880">
        <ele>413.007</ele>
        <time>2015-04-09T11:03:42Z</time>
      </trkpt>
      <trkpt lat="42.388739" lon="-1.417453">
        <ele>398.025</ele>
        <time>2015-04-09T11:04:33Z</time>
      </trkpt>
      <trkpt lat="42.389770" lon="-1.415726">
        <ele>395.029</ele>
        <time>2015-04-09T11:05:08Z</time>
      </trkpt>
      <trkpt lat="42.390655" lon="-1.414900">
        <ele>394.057</ele>
        <time>2015-04-09T11:05:33Z</time>
      </trkpt>
      <trkpt lat="42.391665" lon="-1.414537">
        <ele>393.074</ele>
        <time>2015-04-09T11:05:54Z</time>
      </trkpt>
      <trkpt lat="42.393188" lon="-1.414547">
        <ele>396.091</ele>
        <time>2015-04-09T11:06:25Z</time>
      </trkpt>
      <trkpt lat="42.394726" lon="-1.414964">
        <ele>394.035</ele>
        <time>2015-04-09T11:06:56Z</time>
      </trkpt>
      <trkpt lat="42.395397" lon="-1.415282">
        <ele>398.038</ele>
        <time>2015-04-09T11:07:10Z</time>
      </trkpt>
      <trkpt lat="42.397278" lon="-1.417337">
        <ele>398.083</ele>
        <time>2015-04-09T11:07:54Z</time>
      </trkpt>
      <trkpt lat="42.399012" lon="-1.419911">
        <ele>399.025</ele>
        <time>2015-04-09T11:08:48Z</time>
      </trkpt>
      <trkpt lat="42.400276" lon="-1.420378">
        <ele>409.017</ele>
        <time>2015-04-09T11:10:23Z</time>
      </trkpt>
      <trkpt lat="42.400562" lon="-1.420276">
        <ele>411.007</ele>
        <time>2015-04-09T11:10:35Z</time>
      </trkpt>
      <trkpt lat="42.402709" lon="-1.417485">
        <ele>421.037</ele>
        <time>2015-04-09T11:12:12Z</time>
      </trkpt>
      <trkpt lat="42.403004" lon="-1.417329">
        <ele>420.011</ele>
        <time>2015-04-09T11:12:24Z</time>
      </trkpt>
      <trkpt lat="42.404702" lon="-1.417835">
        <ele>421.039</ele>
        <time>2015-04-09T11:13:11Z</time>
      </trkpt>
      <trkpt lat="42.408197" lon="-1.417825">
        <ele>422.096</ele>
        <time>2015-04-09T11:16:15Z</time>
      </trkpt>
      <trkpt lat="42.409105" lon="-1.418197">
        <ele>420.083</ele>
        <time>2015-04-09T11:16:39Z</time>
      </trkpt>
      <trkpt lat="42.412133" lon="-1.418211">
        <ele>406.027</ele>
        <time>2015-04-09T11:17:24Z</time>
      </trkpt>
      <trkpt lat="42.415549" lon="-1.417923">
        <ele>404.080</ele>
        <time>2015-04-09T11:18:46Z</time>
      </trkpt>
      <trkpt lat="42.416347" lon="-1.417740">
        <ele>410.012</ele>
        <time>2015-04-09T11:19:06Z</time>
      </trkpt>
      <trkpt lat="42.417709" lon="-1.418106">
        <ele>410.032</ele>
        <time>2015-04-09T11:19:38Z</time>
      </trkpt>
      <trkpt lat="42.418819" lon="-1.418215">
        <ele>413.005</ele>
        <time>2015-04-09T11:20:04Z</time>
      </trkpt>
      <trkpt lat="42.420374" lon="-1.418108">
        <ele>415.007</ele>
        <time>2015-04-09T11:20:42Z</time>
      </trkpt>
      <trkpt lat="42.421403" lon="-1.418456">
        <ele>416.090</ele>
        <time>2015-04-09T11:21:07Z</time>
      </trkpt>
      <trkpt lat="42.422118" lon="-1.418457">
        <ele>414.014</ele>
        <time>2015-04-09T11:21:24Z</time>
      </trkpt>
      <trkpt lat="42.425506" lon="-1.416577">
        <ele>421.012</ele>
        <time>2015-04-09T11:23:42Z</time>
      </trkpt>
      <trkpt lat="42.426242" lon="-1.415701">
        <ele>428.049</ele>
        <time>2015-04-09T11:24:12Z</time>
      </trkpt>
      <trkpt lat="42.427102" lon="-1.415359">
        <ele>433.066</ele>
        <time>2015-04-09T11:24:41Z</time>
      </trkpt>
      <trkpt lat="42.429257" lon="-1.414126">
        <ele>430.040</ele>
        <time>2015-04-09T11:25:35Z</time>
      </trkpt>
      <trkpt lat="42.429951" lon="-1.413510">
        <ele>428.013</ele>
        <time>2015-04-09T11:25:54Z</time>
      </trkpt>
      <trkpt lat="42.431792" lon="-1.413561">
        <ele>434.013</ele>
        <time>2015-04-09T11:26:45Z</time>
      </trkpt>
      <trkpt lat="42.434208" lon="-1.413206">
        <ele>434.043</ele>
        <time>2015-04-09T11:27:42Z</time>
      </trkpt>
      <trkpt lat="42.434970" lon="-1.412927">
        <ele>435.007</ele>
        <time>2015-04-09T11:28:00Z</time>
      </trkpt>
      <trkpt lat="42.435758" lon="-1.412040">
        <ele>436.007</ele>
        <time>2015-04-09T11:28:39Z</time>
      </trkpt>
      <trkpt lat="42.436747" lon="-1.411815">
        <ele>441.060</ele>
        <time>2015-04-09T11:29:27Z</time>
      </trkpt>
      <trkpt lat="42.437044" lon="-1.411887">
        <ele>448.024</ele>
        <time>2015-04-09T11:29:46Z</time>
      </trkpt>
      <trkpt lat="42.437589" lon="-1.412473">
        <ele>453.012</ele>
        <time>2015-04-09T11:30:25Z</time>
      </trkpt>
      <trkpt lat="42.437980" lon="-1.413513">
        <ele>457.089</ele>
        <time>2015-04-09T11:30:57Z</time>
      </trkpt>
      <trkpt lat="42.438398" lon="-1.413962">
        <ele>456.016</ele>
        <time>2015-04-09T11:31:14Z</time>
      </trkpt>
      <trkpt lat="42.438954" lon="-1.414929">
        <ele>456.050</ele>
        <time>2015-04-09T11:31:46Z</time>
      </trkpt>
      <trkpt lat="42.439122" lon="-1.415699">
        <ele>457.093</ele>
        <time>2015-04-09T11:32:06Z</time>
      </trkpt>
      <trkpt lat="42.439103" lon="-1.417118">
        <ele>463.084</ele>
        <time>2015-04-09T11:32:42Z</time>
      </trkpt>
      <trkpt lat="42.439299" lon="-1.417548">
        <ele>462.007</ele>
        <time>2015-04-09T11:32:54Z</time>
      </trkpt>
      <trkpt lat="42.440077" lon="-1.417846">
        <ele>467.017</ele>
        <time>2015-04-09T11:33:23Z</time>
      </trkpt>
      <trkpt lat="42.440463" lon="-1.417805">
        <ele>465.007</ele>
        <time>2015-04-09T11:33:43Z</time>
      </trkpt>
      <trkpt lat="42.440834" lon="-1.417568">
        <ele>460.087</ele>
        <time>2015-04-09T11:34:00Z</time>
      </trkpt>
      <trkpt lat="42.441646" lon="-1.417676">
        <ele>460.011</ele>
        <time>2015-04-09T11:34:25Z</time>
      </trkpt>
      <trkpt lat="42.442236" lon="-1.417177">
        <ele>454.029</ele>
        <time>2015-04-09T11:34:43Z</time>
      </trkpt>
      <trkpt lat="42.443067" lon="-1.417157">
        <ele>448.046</ele>
        <time>2015-04-09T11:34:59Z</time>
      </trkpt>
      <trkpt lat="42.443288" lon="-1.416975">
        <ele>450.033</ele>
        <time>2015-04-09T11:35:05Z</time>
      </trkpt>
      <trkpt lat="42.444199" lon="-1.417469">
        <ele>450.037</ele>
        <time>2015-04-09T11:35:32Z</time>
      </trkpt>
      <trkpt lat="42.445014" lon="-1.417527">
        <ele>443.030</ele>
        <time>2015-04-09T11:35:50Z</time>
      </trkpt>
      <trkpt lat="42.446626" lon="-1.416911">
        <ele>440.083</ele>
        <time>2015-04-09T11:36:28Z</time>
      </trkpt>
      <trkpt lat="42.447308" lon="-1.416338">
        <ele>432.025</ele>
        <time>2015-04-09T11:55:46Z</time>
      </trkpt>
      <trkpt lat="42.447850" lon="-1.416313">
        <ele>428.017</ele>
        <time>2015-04-09T11:55:56Z</time>
      </trkpt>
      <trkpt lat="42.448624" lon="-1.415890">
        <ele>435.007</ele>
        <time>2015-04-09T11:56:38Z</time>
      </trkpt>
      <trkpt lat="42.449096" lon="-1.416097">
        <ele>439.097</ele>
        <time>2015-04-09T11:57:08Z</time>
      </trkpt>
      <trkpt lat="42.449809" lon="-1.415953">
        <ele>436.071</ele>
        <time>2015-04-09T11:57:39Z</time>
      </trkpt>
      <trkpt lat="42.451137" lon="-1.415207">
        <ele>435.039</ele>
        <time>2015-04-09T11:58:29Z</time>
      </trkpt>
      <trkpt lat="42.451456" lon="-1.415185">
        <ele>434.076</ele>
        <time>2015-04-09T11:58:37Z</time>
      </trkpt>
      <trkpt lat="42.451872" lon="-1.415605">
        <ele>433.083</ele>
        <time>2015-04-09T11:58:50Z</time>
      </trkpt>
      <trkpt lat="42.452054" lon="-1.415569">
        <ele>435.027</ele>
        <time>2015-04-09T11:58:58Z</time>
      </trkpt>
      <trkpt lat="42.453142" lon="-1.414020">
        <ele>418.030</ele>
        <time>2015-04-09T11:59:33Z</time>
      </trkpt>
      <trkpt lat="42.455895" lon="-1.410928">
        <ele>412.027</ele>
        <time>2015-04-09T12:01:00Z</time>
      </trkpt>
      <trkpt lat="42.456072" lon="-1.410355">
        <ele>411.068</ele>
        <time>2015-04-09T12:01:10Z</time>
      </trkpt>
      <trkpt lat="42.456097" lon="-1.409011">
        <ele>409.014</ele>
        <time>2015-04-09T12:01:27Z</time>
      </trkpt>
      <trkpt lat="42.456319" lon="-1.409059">
        <ele>410.007</ele>
        <time>2015-04-09T12:01:33Z</time>
      </trkpt>
      <trkpt lat="42.456507" lon="-1.409810">
        <ele>413.071</ele>
        <time>2015-04-09T12:01:45Z</time>
      </trkpt>
      <trkpt lat="42.456899" lon="-1.409878">
        <ele>411.025</ele>
        <time>2015-04-09T12:01:53Z</time>
      </trkpt>
      <trkpt lat="42.459598" lon="-1.408456">
        <ele>408.033</ele>
        <time>2015-04-09T12:02:55Z</time>
      </trkpt>
      <trkpt lat="42.459961" lon="-1.408042">
        <ele>410.090</ele>
        <time>2015-04-09T12:03:07Z</time>
      </trkpt>
      <trkpt lat="42.460438" lon="-1.408321">
        <ele>413.057</ele>
        <time>2015-04-09T12:03:21Z</time>
      </trkpt>
      <trkpt lat="42.461131" lon="-1.408217">
        <ele>413.061</ele>
        <time>2015-04-09T12:03:37Z</time>
      </trkpt>
      <trkpt lat="42.463509" lon="-1.407814">
        <ele>408.064</ele>
        <time>2015-04-09T12:04:36Z</time>
      </trkpt>
      <trkpt lat="42.465798" lon="-1.407114">
        <ele>415.076</ele>
        <time>2015-04-09T12:05:31Z</time>
      </trkpt>
      <trkpt lat="42.467172" lon="-1.406943">
        <ele>405.090</ele>
        <time>2015-04-09T12:05:59Z</time>
      </trkpt>
      <trkpt lat="42.467598" lon="-1.407264">
        <ele>408.019</ele>
        <time>2015-04-09T12:06:12Z</time>
      </trkpt>
      <trkpt lat="42.468165" lon="-1.407295">
        <ele>410.007</ele>
        <time>2015-04-09T12:06:28Z</time>
      </trkpt>
      <trkpt lat="42.468715" lon="-1.407622">
        <ele>409.016</ele>
        <time>2015-04-09T12:06:42Z</time>
      </trkpt>
      <trkpt lat="42.470143" lon="-1.409122">
        <ele>412.080</ele>
        <time>2015-04-09T12:07:31Z</time>
      </trkpt>
      <trkpt lat="42.471346" lon="-1.410748">
        <ele>419.048</ele>
        <time>2015-04-09T12:08:26Z</time>
      </trkpt>
      <trkpt lat="42.472088" lon="-1.412571">
        <ele>428.035</ele>
        <time>2015-04-09T12:09:19Z</time>
      </trkpt>
      <trkpt lat="42.474120" lon="-1.415658">
        <ele>431.062</ele>
        <time>2015-04-09T12:10:49Z</time>
      </trkpt>
      <trkpt lat="42.475091" lon="-1.419718">
        <ele>437.046</ele>
        <time>2015-04-09T12:12:19Z</time>
      </trkpt>
      <trkpt lat="42.475806" lon="-1.420362">
        <ele>431.049</ele>
        <time>2015-04-09T12:12:50Z</time>
      </trkpt>
      <trkpt lat="42.476703" lon="-1.420345">
        <ele>426.099</ele>
        <time>2015-04-09T12:13:06Z</time>
      </trkpt>
      <trkpt lat="42.477960" lon="-1.419905">
        <ele>425.007</ele>
        <time>2015-04-09T12:13:37Z</time>
      </trkpt>
      <trkpt lat="42.478527" lon="-1.419370">
        <ele>422.027</ele>
        <time>2015-04-09T12:14:26Z</time>
      </trkpt>
      <trkpt lat="42.478934" lon="-1.418698">
        <ele>422.007</ele>
        <time>2015-04-09T12:14:47Z</time>
      </trkpt>
      <trkpt lat="42.481434" lon="-1.415650">
        <ele>422.078</ele>
        <time>2015-04-09T12:16:06Z</time>
      </trkpt>
      <trkpt lat="42.482492" lon="-1.414741">
        <ele>418.052</ele>
        <time>2015-04-09T12:16:34Z</time>
      </trkpt>
      <trkpt lat="42.484337" lon="-1.413945">
        <ele>416.090</ele>
        <time>2015-04-09T12:17:07Z</time>
      </trkpt>
      <trkpt lat="42.485529" lon="-1.413711">
        <ele>422.027</ele>
        <time>2015-04-09T12:18:09Z</time>
      </trkpt>
      <trkpt lat="42.486384" lon="-1.414288">
        <ele>419.024</ele>
        <time>2015-04-09T12:18:47Z</time>
      </trkpt>
      <trkpt lat="42.486880" lon="-1.414440">
        <ele>418.018</ele>
        <time>2015-04-09T12:18:55Z</time>
      </trkpt>
      <trkpt lat="42.488413" lon="-1.416411">
        <ele>421.031</ele>
        <time>2015-04-09T12:23:02Z</time>
      </trkpt>
      <trkpt lat="42.489011" lon="-1.417567">
        <ele>416.048</ele>
        <time>2015-04-09T12:23:33Z</time>
      </trkpt>
      <trkpt lat="42.490109" lon="-1.419124">
        <ele>421.061</ele>
        <time>2015-04-09T12:24:15Z</time>
      </trkpt>
      <trkpt lat="42.490264" lon="-1.419795">
        <ele>419.017</ele>
        <time>2015-04-09T12:24:29Z</time>
      </trkpt>
      <trkpt lat="42.491178" lon="-1.420742">
        <ele>419.007</ele>
        <time>2015-04-09T12:25:15Z</time>
      </trkpt>
      <trkpt lat="42.492294" lon="-1.423275">
        <ele>427.053</ele>
        <time>2015-04-09T12:26:41Z</time>
      </trkpt>
      <trkpt lat="42.493214" lon="-1.424641">
        <ele>431.067</ele>
        <time>2015-04-09T12:27:23Z</time>
      </trkpt>
      <trkpt lat="42.493505" lon="-1.424823">
        <ele>434.065</ele>
        <time>2015-04-09T12:27:35Z</time>
      </trkpt>
      <trkpt lat="42.493902" lon="-1.424870">
        <ele>436.062</ele>
        <time>2015-04-09T12:27:51Z</time>
      </trkpt>
      <trkpt lat="42.494518" lon="-1.424686">
        <ele>434.059</ele>
        <time>2015-04-09T12:28:09Z</time>
      </trkpt>
      <trkpt lat="42.495158" lon="-1.423925">
        <ele>440.093</ele>
        <time>2015-04-09T12:28:38Z</time>
      </trkpt>
      <trkpt lat="42.496892" lon="-1.422950">
        <ele>434.046</ele>
        <time>2015-04-09T12:29:24Z</time>
      </trkpt>
      <trkpt lat="42.498924" lon="-1.421420">
        <ele>426.034</ele>
        <time>2015-04-09T12:30:11Z</time>
      </trkpt>
      <trkpt lat="42.501202" lon="-1.418980">
        <ele>429.055</ele>
        <time>2015-04-09T12:31:30Z</time>
      </trkpt>
      <trkpt lat="42.502239" lon="-1.418395">
        <ele>429.010</ele>
        <time>2015-04-09T12:31:52Z</time>
      </trkpt>
      <trkpt lat="42.503369" lon="-1.418018">
        <ele>427.007</ele>
        <time>2015-04-09T12:32:13Z</time>
      </trkpt>
      <trkpt lat="42.504050" lon="-1.418103">
        <ele>427.072</ele>
        <time>2015-04-09T12:32:30Z</time>
      </trkpt>
      <trkpt lat="42.504576" lon="-1.418404">
        <ele>422.036</ele>
        <time>2015-04-09T12:39:29Z</time>
      </trkpt>
      <trkpt lat="42.505088" lon="-1.418498">
        <ele>421.024</ele>
        <time>2015-04-09T12:49:45Z</time>
      </trkpt>
      <trkpt lat="42.506549" lon="-1.419791">
        <ele>428.021</ele>
        <time>2015-04-09T12:51:01Z</time>
      </trkpt>
      <trkpt lat="42.506919" lon="-1.419880">
        <ele>430.018</ele>
        <time>2015-04-09T12:51:19Z</time>
      </trkpt>
      <trkpt lat="42.508393" lon="-1.423250">
        <ele>446.072</ele>
        <time>2015-04-09T12:53:28Z</time>
      </trkpt>
      <trkpt lat="42.509156" lon="-1.423636">
        <ele>441.055</ele>
        <time>2015-04-09T12:53:56Z</time>
      </trkpt>
      <trkpt lat="42.509907" lon="-1.423626">
        <ele>443.023</ele>
        <time>2015-04-09T12:54:11Z</time>
      </trkpt>
      <trkpt lat="42.510513" lon="-1.423352">
        <ele>437.083</ele>
        <time>2015-04-09T12:54:24Z</time>
      </trkpt>
      <trkpt lat="42.511296" lon="-1.422740">
        <ele>428.011</ele>
        <time>2015-04-09T12:54:38Z</time>
      </trkpt>
      <trkpt lat="42.513106" lon="-1.420058">
        <ele>424.007</ele>
        <time>2015-04-09T12:55:29Z</time>
      </trkpt>
      <trkpt lat="42.515189" lon="-1.415021">
        <ele>445.051</ele>
        <time>2015-04-09T12:58:54Z</time>
      </trkpt>
      <trkpt lat="42.515729" lon="-1.414338">
        <ele>439.025</ele>
        <time>2015-04-09T12:59:21Z</time>
      </trkpt>
      <trkpt lat="42.516615" lon="-1.413902">
        <ele>438.093</ele>
        <time>2015-04-09T12:59:38Z</time>
      </trkpt>
      <trkpt lat="42.517935" lon="-1.412661">
        <ele>439.050</ele>
        <time>2015-04-09T13:00:17Z</time>
      </trkpt>
      <trkpt lat="42.518520" lon="-1.412709">
        <ele>437.027</ele>
        <time>2015-04-09T13:00:29Z</time>
      </trkpt>
      <trkpt lat="42.518601" lon="-1.412271">
        <ele>431.011</ele>
        <time>2015-04-09T13:00:38Z</time>
      </trkpt>
      <trkpt lat="42.518346" lon="-1.410985">
        <ele>429.044</ele>
        <time>2015-04-09T13:00:57Z</time>
      </trkpt>
      <trkpt lat="42.518130" lon="-1.408304">
        <ele>436.046</ele>
        <time>2015-04-09T13:02:17Z</time>
      </trkpt>
      <trkpt lat="42.518450" lon="-1.406730">
        <ele>434.088</ele>
        <time>2015-04-09T13:02:47Z</time>
      </trkpt>
      <trkpt lat="42.518901" lon="-1.406026">
        <ele>434.016</ele>
        <time>2015-04-09T13:03:03Z</time>
      </trkpt>
      <trkpt lat="42.519515" lon="-1.404575">
        <ele>435.007</ele>
        <time>2015-04-09T13:03:34Z</time>
      </trkpt>
      <trkpt lat="42.519697" lon="-1.404504">
        <ele>437.013</ele>
        <time>2015-04-09T13:06:08Z</time>
      </trkpt>
      <trkpt lat="42.520776" lon="-1.405942">
        <ele>431.037</ele>
        <time>2015-04-09T13:06:44Z</time>
      </trkpt>
      <trkpt lat="42.521083" lon="-1.406035">
        <ele>430.065</ele>
        <time>2015-04-09T13:06:53Z</time>
      </trkpt>
      <trkpt lat="42.521953" lon="-1.404348">
        <ele>426.072</ele>
        <time>2015-04-09T13:07:17Z</time>
      </trkpt>
      <trkpt lat="42.523250" lon="-1.402897">
        <ele>433.089</ele>
        <time>2015-04-09T13:08:01Z</time>
      </trkpt>
      <trkpt lat="42.525072" lon="-1.399335">
        <ele>435.023</ele>
        <time>2015-04-09T13:09:22Z</time>
      </trkpt>
      <trkpt lat="42.525374" lon="-1.398495">
        <ele>436.076</ele>
        <time>2015-04-09T13:09:39Z</time>
      </trkpt>
      <trkpt lat="42.527021" lon="-1.395666">
        <ele>436.088</ele>
        <time>2015-04-09T13:10:30Z</time>
      </trkpt>
      <trkpt lat="42.528234" lon="-1.394368">
        <ele>438.024</ele>
        <time>2015-04-09T13:10:58Z</time>
      </trkpt>
      <trkpt lat="42.528877" lon="-1.393417">
        <ele>438.026</ele>
        <time>2015-04-09T13:11:14Z</time>
      </trkpt>
      <trkpt lat="42.529179" lon="-1.393407">
        <ele>440.007</ele>
        <time>2015-04-09T13:11:21Z</time>
      </trkpt>
      <trkpt lat="42.530330" lon="-1.393895">
        <ele>435.047</ele>
        <time>2015-04-09T13:11:47Z</time>
      </trkpt>
      <trkpt lat="42.531807" lon="-1.394909">
        <ele>443.081</ele>
        <time>2015-04-09T13:13:10Z</time>
      </trkpt>
      <trkpt lat="42.530855" lon="-1.392477">
        <ele>446.029</ele>
        <time>2015-04-09T13:14:10Z</time>
      </trkpt>
      <trkpt lat="42.530015" lon="-1.391033">
        <ele>450.096</ele>
        <time>2015-04-09T13:14:58Z</time>
      </trkpt>
      <trkpt lat="42.529954" lon="-1.390812">
        <ele>450.073</ele>
        <time>2015-04-09T13:17:14Z</time>
      </trkpt>
      <trkpt lat="42.530297" lon="-1.390400">
        <ele>414.047</ele>
        <time>2015-04-09T13:26:39Z</time>
      </trkpt>
      <trkpt lat="42.530113" lon="-1.390331">
        <ele>424.090</ele>
        <time>2015-04-09T13:28:03Z</time>
      </trkpt>
      <trkpt lat="42.529920" lon="-1.390709">
        <ele>440.052</ele>
        <time>2015-04-09T13:29:23Z</time>
      </trkpt>
      <trkpt lat="42.530021" lon="-1.390808">
        <ele>443.053</ele>
        <time>2015-04-09T13:31:29Z</time>
      </trkpt>
      <trkpt lat="42.529779" lon="-1.390789">
        <ele>466.008</ele>
        <time>2015-04-09T13:32:13Z</time>
      </trkpt>
      <trkpt lat="42.530534" lon="-1.391831">
        <ele>449.007</ele>
        <time>2015-04-09T13:32:52Z</time>
      </trkpt>
      <trkpt lat="42.531987" lon="-1.389949">
        <ele>447.094</ele>
        <time>2015-04-09T13:34:36Z</time>
      </trkpt>
      <trkpt lat="42.533522" lon="-1.389083">
        <ele>449.088</ele>
        <time>2015-04-09T13:35:14Z</time>
      </trkpt>
      <trkpt lat="42.534478" lon="-1.388883">
        <ele>453.046</ele>
        <time>2015-04-09T13:35:30Z</time>
      </trkpt>
      <trkpt lat="42.534910" lon="-1.388593">
        <ele>456.083</ele>
        <time>2015-04-09T13:35:36Z</time>
      </trkpt>
      <trkpt lat="42.536745" lon="-1.386488">
        <ele>438.020</ele>
        <time>2015-04-09T13:36:38Z</time>
      </trkpt>
      <trkpt lat="42.537690" lon="-1.385965">
        <ele>443.024</ele>
        <time>2015-04-09T13:37:16Z</time>
      </trkpt>
      <trkpt lat="42.537730" lon="-1.385564">
        <ele>450.037</ele>
        <time>2015-04-09T13:37:19Z</time>
      </trkpt>
      <trkpt lat="42.538098" lon="-1.385382">
        <ele>454.048</ele>
        <time>2015-04-09T13:37:34Z</time>
      </trkpt>
      <trkpt lat="42.538053" lon="-1.382982">
        <ele>446.061</ele>
        <time>2015-04-09T13:38:03Z</time>
      </trkpt>
      <trkpt lat="42.537498" lon="-1.378807">
        <ele>441.017</ele>
        <time>2015-04-09T13:38:54Z</time>
      </trkpt>
      <trkpt lat="42.537002" lon="-1.376702">
        <ele>444.007</ele>
        <time>2015-04-09T13:39:17Z</time>
      </trkpt>
      <trkpt lat="42.536242" lon="-1.374718">
        <ele>435.023</ele>
        <time>2015-04-09T13:40:00Z</time>
      </trkpt>
      <trkpt lat="42.536988" lon="-1.372484">
        <ele>437.047</ele>
        <time>2015-04-09T13:40:37Z</time>
      </trkpt>
      <trkpt lat="42.536969" lon="-1.372221">
        <ele>435.085</ele>
        <time>2015-04-09T13:40:42Z</time>
      </trkpt>
      <trkpt lat="42.536530" lon="-1.371837">
        <ele>436.012</ele>
        <time>2015-04-09T13:40:54Z</time>
      </trkpt>
      <trkpt lat="42.536813" lon="-1.371886">
        <ele>439.059</ele>
        <time>2015-04-09T13:41:11Z</time>
      </trkpt>
      <trkpt lat="42.537031" lon="-1.372210">
        <ele>438.023</ele>
        <time>2015-04-09T13:41:22Z</time>
      </trkpt>
      <trkpt lat="42.537561" lon="-1.372288">
        <ele>444.026</ele>
        <time>2015-04-09T13:41:41Z</time>
      </trkpt>
      <trkpt lat="42.538326" lon="-1.371826">
        <ele>437.017</ele>
        <time>2015-04-09T13:42:20Z</time>
      </trkpt>
      <trkpt lat="42.538944" lon="-1.370618">
        <ele>441.087</ele>
        <time>2015-04-09T13:43:24Z</time>
      </trkpt>
      <trkpt lat="42.539158" lon="-1.369719">
        <ele>451.015</ele>
        <time>2015-04-09T13:44:04Z</time>
      </trkpt>
      <trkpt lat="42.540641" lon="-1.367353">
        <ele>449.007</ele>
        <time>2015-04-09T13:45:15Z</time>
      </trkpt>
      <trkpt lat="42.541291" lon="-1.364518">
        <ele>444.060</ele>
        <time>2015-04-09T13:46:06Z</time>
      </trkpt>
      <trkpt lat="42.541801" lon="-1.363500">
        <ele>443.084</ele>
        <time>2015-04-09T13:46:26Z</time>
      </trkpt>
      <trkpt lat="42.542110" lon="-1.362404">
        <ele>436.032</ele>
        <time>2015-04-09T13:46:41Z</time>
      </trkpt>
      <trkpt lat="42.542845" lon="-1.358917">
        <ele>436.059</ele>
        <time>2015-04-09T13:47:31Z</time>
      </trkpt>
      <trkpt lat="42.542539" lon="-1.358104">
        <ele>439.076</ele>
        <time>2015-04-09T13:47:50Z</time>
      </trkpt>
      <trkpt lat="42.542060" lon="-1.355529">
        <ele>439.070</ele>
        <time>2015-04-09T13:48:42Z</time>
      </trkpt>
      <trkpt lat="42.542100" lon="-1.355093">
        <ele>438.093</ele>
        <time>2015-04-09T13:48:49Z</time>
      </trkpt>
      <trkpt lat="42.542459" lon="-1.354246">
        <ele>439.049</ele>
        <time>2015-04-09T13:49:07Z</time>
      </trkpt>
      <trkpt lat="42.543692" lon="-1.352944">
        <ele>438.002</ele>
        <time>2015-04-09T13:49:42Z</time>
      </trkpt>
      <trkpt lat="42.544297" lon="-1.351675">
        <ele>444.022</ele>
        <time>2015-04-09T13:50:09Z</time>
      </trkpt>
      <trkpt lat="42.544709" lon="-1.350314">
        <ele>444.007</ele>
        <time>2015-04-09T13:50:31Z</time>
      </trkpt>
      <trkpt lat="42.545346" lon="-1.350356">
        <ele>440.073</ele>
        <time>2015-04-09T13:50:46Z</time>
      </trkpt>
      <trkpt lat="42.545563" lon="-1.349880">
        <ele>437.067</ele>
        <time>2015-04-09T13:50:55Z</time>
      </trkpt>
      <trkpt lat="42.545211" lon="-1.348956">
        <ele>439.035</ele>
        <time>2015-04-09T13:51:15Z</time>
      </trkpt>
      <trkpt lat="42.545563" lon="-1.347701">
        <ele>451.082</ele>
        <time>2015-04-09T13:52:00Z</time>
      </trkpt>
      <trkpt lat="42.545528" lon="-1.346899">
        <ele>452.049</ele>
        <time>2015-04-09T13:52:31Z</time>
      </trkpt>
      <trkpt lat="42.545743" lon="-1.345575">
        <ele>449.013</ele>
        <time>2015-04-09T13:53:02Z</time>
      </trkpt>
      <trkpt lat="42.545723" lon="-1.342672">
        <ele>450.036</ele>
        <time>2015-04-09T13:53:58Z</time>
      </trkpt>
      <trkpt lat="42.545942" lon="-1.341417">
        <ele>453.084</ele>
        <time>2015-04-09T13:54:23Z</time>
      </trkpt>
      <trkpt lat="42.545939" lon="-1.339092">
        <ele>453.007</ele>
        <time>2015-04-09T13:55:05Z</time>
      </trkpt>
      <trkpt lat="42.546190" lon="-1.336266">
        <ele>450.017</ele>
        <time>2015-04-09T13:55:51Z</time>
      </trkpt>
      <trkpt lat="42.546077" lon="-1.335476">
        <ele>446.007</ele>
        <time>2015-04-09T13:56:02Z</time>
      </trkpt>
      <trkpt lat="42.546604" lon="-1.332031">
        <ele>450.097</ele>
        <time>2015-04-09T13:57:07Z</time>
      </trkpt>
      <trkpt lat="42.548486" lon="-1.327982">
        <ele>452.021</ele>
        <time>2015-04-09T13:58:25Z</time>
      </trkpt>
      <trkpt lat="42.549794" lon="-1.324757">
        <ele>455.099</ele>
        <time>2015-04-09T13:59:31Z</time>
      </trkpt>
      <trkpt lat="42.551603" lon="-1.319618">
        <ele>455.076</ele>
        <time>2015-04-09T14:01:14Z</time>
      </trkpt>
      <trkpt lat="42.553298" lon="-1.316351">
        <ele>461.063</ele>
        <time>2015-04-09T14:02:21Z</time>
      </trkpt>
      <trkpt lat="42.553630" lon="-1.315045">
        <ele>456.047</ele>
        <time>2015-04-09T14:02:50Z</time>
      </trkpt>
      <trkpt lat="42.553743" lon="-1.313665">
        <ele>446.010</ele>
        <time>2015-04-09T14:03:03Z</time>
      </trkpt>
      <trkpt lat="42.554558" lon="-1.310778">
        <ele>444.056</ele>
        <time>2015-04-09T14:03:49Z</time>
      </trkpt>
      <trkpt lat="42.556564" lon="-1.306395">
        <ele>441.059</ele>
        <time>2015-04-09T14:05:06Z</time>
      </trkpt>
      <trkpt lat="42.558498" lon="-1.301614">
        <ele>445.014</ele>
        <time>2015-04-09T14:06:30Z</time>
      </trkpt>
      <trkpt lat="42.559268" lon="-1.300631">
        <ele>449.007</ele>
        <time>2015-04-09T14:06:53Z</time>
      </trkpt>
      <trkpt lat="42.561135" lon="-1.298742">
        <ele>452.044</ele>
        <time>2015-04-09T14:07:36Z</time>
      </trkpt>
      <trkpt lat="42.563393" lon="-1.296945">
        <ele>454.038</ele>
        <time>2015-04-09T14:08:26Z</time>
      </trkpt>
      <trkpt lat="42.563818" lon="-1.296400">
        <ele>453.046</ele>
        <time>2015-04-09T14:08:40Z</time>
      </trkpt>
      <trkpt lat="42.564384" lon="-1.295161">
        <ele>458.033</ele>
        <time>2015-04-09T14:09:05Z</time>
      </trkpt>
      <trkpt lat="42.565862" lon="-1.293109">
        <ele>451.090</ele>
        <time>2015-04-09T14:09:56Z</time>
      </trkpt>
      <trkpt lat="42.566492" lon="-1.292384">
        <ele>455.044</ele>
        <time>2015-04-09T14:10:11Z</time>
      </trkpt>
      <trkpt lat="42.568586" lon="-1.290775">
        <ele>459.077</ele>
        <time>2015-04-09T14:11:01Z</time>
      </trkpt>
      <trkpt lat="42.569327" lon="-1.289754">
        <ele>458.093</ele>
        <time>2015-04-09T14:11:22Z</time>
      </trkpt>
      <trkpt lat="42.570239" lon="-1.288848">
        <ele>459.065</ele>
        <time>2015-04-09T14:11:54Z</time>
      </trkpt>
      <trkpt lat="42.572260" lon="-1.287736">
        <ele>459.021</ele>
        <time>2015-04-09T14:13:57Z</time>
      </trkpt>
      <trkpt lat="42.573474" lon="-1.287388">
        <ele>461.007</ele>
        <time>2015-04-09T14:14:26Z</time>
      </trkpt>
      <trkpt lat="42.575383" lon="-1.287625">
        <ele>465.028</ele>
        <time>2015-04-09T14:15:12Z</time>
      </trkpt>
      <trkpt lat="42.575936" lon="-1.287241">
        <ele>468.072</ele>
        <time>2015-04-09T14:15:38Z</time>
      </trkpt>
      <trkpt lat="42.577237" lon="-1.286907">
        <ele>462.010</ele>
        <time>2015-04-09T14:16:14Z</time>
      </trkpt>
      <trkpt lat="42.577002" lon="-1.285298">
        <ele>461.097</ele>
        <time>2015-04-09T14:16:43Z</time>
      </trkpt>
      <trkpt lat="42.576181" lon="-1.282604">
        <ele>472.084</ele>
        <time>2015-04-09T14:17:47Z</time>
      </trkpt>
      <trkpt lat="42.575942" lon="-1.281273">
        <ele>483.058</ele>
        <time>2015-04-09T14:18:48Z</time>
      </trkpt>
      <trkpt lat="42.576700" lon="-1.284311">
        <ele>457.041</ele>
        <time>2015-04-09T15:55:13Z</time>
      </trkpt>
      <trkpt lat="42.575122" lon="-1.284613">
        <ele>459.086</ele>
        <time>2015-04-09T15:56:15Z</time>
      </trkpt>
      <trkpt lat="42.572917" lon="-1.283265">
        <ele>442.060</ele>
        <time>2015-04-09T15:58:43Z</time>
      </trkpt>
      <trkpt lat="42.573692" lon="-1.283679">
        <ele>455.026</ele>
        <time>2015-04-09T15:59:15Z</time>
      </trkpt>
      <trkpt lat="42.573651" lon="-1.283930">
        <ele>448.007</ele>
        <time>2015-04-09T15:59:29Z</time>
      </trkpt>
      <trkpt lat="42.573734" lon="-1.283532">
        <ele>451.097</ele>
        <time>2015-04-09T16:00:48Z</time>
      </trkpt>
      <trkpt lat="42.573377" lon="-1.283817">
        <ele>499.061</ele>
        <time>2015-04-09T16:14:12Z</time>
      </trkpt>
      <trkpt lat="42.573835" lon="-1.283750">
        <ele>487.079</ele>
        <time>2015-04-09T16:16:00Z</time>
      </trkpt>
      <trkpt lat="42.573635" lon="-1.283505">
        <ele>418.086</ele>
        <time>2015-04-09T16:22:24Z</time>
      </trkpt>
      <trkpt lat="42.573870" lon="-1.283918">
        <ele>455.023</ele>
        <time>2015-04-09T16:50:30Z</time>
      </trkpt>
      <trkpt lat="42.573631" lon="-1.284146">
        <ele>457.017</ele>
        <time>2015-04-09T16:51:44Z</time>
      </trkpt>
      <trkpt lat="42.573230" lon="-1.283812">
        <ele>459.090</ele>
        <time>2015-04-09T17:07:37Z</time>
      </trkpt>
      <trkpt lat="42.573703" lon="-1.283642">
        <ele>451.093</ele>
        <time>2015-04-09T17:08:04Z</time>
      </trkpt>
      <trkpt lat="42.573601" lon="-1.283590">
        <ele>453.065</ele>
        <time>2015-04-09T17:08:07Z</time>
      </trkpt>
      <trkpt lat="42.573575" lon="-1.283827">
        <ele>449.021</ele>
        <time>2015-04-09T17:08:53Z</time>
      </trkpt>
    </trkseg>
  </trk>
</gpx>
